<?xml version="1.0" encoding="utf-8"?>
<gpx xmlns:xsi="http://www.w3.org/2001/XMLSchema-instance" xmlns:xsd="http://www.w3.org/2001/XMLSchema" version="1.1" creator="Shapelink.com" xmlns="http://www.topografix.com/GPX/1/1" xmlns:gpxtpx="http://www.garmin.com/xmlschemas/TrackPointExtension/v1">
  <metadata>
    <name>Ejecutar 10.72 km, 2020-02-02</name>
    <desc></desc>
    <author><name>Per Rooth</name></author> 
    <time>2020-02-02T14:59:51Z</time>
  </metadata>
  <trk>
    <name>Ejecutar 10.72 km, 2020-02-02</name>
    <trkseg>
      <trkpt lat="56.873224613664" lon="14.792777523363">
        <ele>177</ele>
        <time>2020-02-02T14:59:51Z</time>
      </trkpt>
      <trkpt lat="56.872926218024" lon="14.792699487874">
        <ele>177</ele>
        <time>2020-02-02T15:00:02Z</time>
      </trkpt>
      <trkpt lat="56.872766961924" lon="14.79251877411">
        <ele>176.6</ele>
        <time>2020-02-02T15:00:08Z</time>
      </trkpt>
      <trkpt lat="56.872671994997" lon="14.792324062573">
        <ele>176</ele>
        <time>2020-02-02T15:00:13Z</time>
      </trkpt>
      <trkpt lat="56.872518522408" lon="14.792156843668">
        <ele>175.6</ele>
        <time>2020-02-02T15:00:19Z</time>
      </trkpt>
      <trkpt lat="56.872423974576" lon="14.792054668307">
        <ele>175</ele>
        <time>2020-02-02T15:00:23Z</time>
      </trkpt>
      <trkpt lat="56.872357338471" lon="14.791990295315">
        <ele>175</ele>
        <time>2020-02-02T15:00:26Z</time>
      </trkpt>
      <trkpt lat="56.872183749322" lon="14.791813353406">
        <ele>173.6</ele>
        <time>2020-02-02T15:00:33Z</time>
      </trkpt>
      <trkpt lat="56.872081071047" lon="14.791705813629">
        <ele>173.2</ele>
        <time>2020-02-02T15:00:37Z</time>
      </trkpt>
      <trkpt lat="56.871931873227" lon="14.791504731848">
        <ele>174</ele>
        <time>2020-02-02T15:00:44Z</time>
      </trkpt>
      <trkpt lat="56.871786028167" lon="14.791273475227">
        <ele>174</ele>
        <time>2020-02-02T15:00:51Z</time>
      </trkpt>
      <trkpt lat="56.871637500899" lon="14.791028639928">
        <ele>175</ele>
        <time>2020-02-02T15:00:58Z</time>
      </trkpt>
      <trkpt lat="56.871493499857" lon="14.790828815432">
        <ele>176</ele>
        <time>2020-02-02T15:01:04Z</time>
      </trkpt>
      <trkpt lat="56.871470114356" lon="14.790795371651">
        <ele>176.2</ele>
        <time>2020-02-02T15:01:05Z</time>
      </trkpt>
      <trkpt lat="56.871383110234" lon="14.790661512708">
        <ele>175</ele>
        <time>2020-02-02T15:01:09Z</time>
      </trkpt>
      <trkpt lat="56.871240785572" lon="14.790449115362">
        <ele>175.6</ele>
        <time>2020-02-02T15:01:16Z</time>
      </trkpt>
      <trkpt lat="56.871076584151" lon="14.790244429364">
        <ele>174.8</ele>
        <time>2020-02-02T15:01:23Z</time>
      </trkpt>
      <trkpt lat="56.870925207037" lon="14.790063380324">
        <ele>174.4</ele>
        <time>2020-02-02T15:01:29Z</time>
      </trkpt>
      <trkpt lat="56.870873155438" lon="14.790004623205">
        <ele>174.6</ele>
        <time>2020-02-02T15:01:31Z</time>
      </trkpt>
      <trkpt lat="56.870718425564" lon="14.789834219178">
        <ele>173.8</ele>
        <time>2020-02-02T15:01:37Z</time>
      </trkpt>
      <trkpt lat="56.870600240774" lon="14.789682087693">
        <ele>172.6</ele>
        <time>2020-02-02T15:01:42Z</time>
      </trkpt>
      <trkpt lat="56.870446768185" lon="14.789512940951">
        <ele>171.4</ele>
        <time>2020-02-02T15:01:48Z</time>
      </trkpt>
      <trkpt lat="56.870391699102" lon="14.789461140809">
        <ele>170.4</ele>
        <time>2020-02-02T15:01:50Z</time>
      </trkpt>
      <trkpt lat="56.870279214004" lon="14.789362485846">
        <ele>169.4</ele>
        <time>2020-02-02T15:01:54Z</time>
      </trkpt>
      <trkpt lat="56.870251637553" lon="14.789339435621">
        <ele>169.4</ele>
        <time>2020-02-02T15:01:55Z</time>
      </trkpt>
      <trkpt lat="56.870148875459" lon="14.789258298829">
        <ele>168.4</ele>
        <time>2020-02-02T15:01:59Z</time>
      </trkpt>
      <trkpt lat="56.86996355165" lon="14.789112621407">
        <ele>167.6</ele>
        <time>2020-02-02T15:02:06Z</time>
      </trkpt>
      <trkpt lat="56.869936478113" lon="14.789090409372">
        <ele>167.4</ele>
        <time>2020-02-02T15:02:07Z</time>
      </trkpt>
      <trkpt lat="56.86976992976" lon="14.78896317213">
        <ele>166.8</ele>
        <time>2020-02-02T15:02:14Z</time>
      </trkpt>
      <trkpt lat="56.869607069443" lon="14.788911874902">
        <ele>166.8</ele>
        <time>2020-02-02T15:02:21Z</time>
      </trkpt>
      <trkpt lat="56.869431971552" lon="14.788832330671">
        <ele>166.2</ele>
        <time>2020-02-02T15:02:28Z</time>
      </trkpt>
      <trkpt lat="56.869387212206" lon="14.788784386203">
        <ele>166.2</ele>
        <time>2020-02-02T15:02:30Z</time>
      </trkpt>
      <trkpt lat="56.869277744592" lon="14.788740967961">
        <ele>167.4</ele>
        <time>2020-02-02T15:02:34Z</time>
      </trkpt>
      <trkpt lat="56.869120164872" lon="14.788693358769">
        <ele>166.4</ele>
        <time>2020-02-02T15:02:40Z</time>
      </trkpt>
      <trkpt lat="56.869035759139" lon="14.788658992979">
        <ele>167</ele>
        <time>2020-02-02T15:02:44Z</time>
      </trkpt>
      <trkpt lat="56.868997705313" lon="14.788694448416">
        <ele>167.4</ele>
        <time>2020-02-02T15:02:47Z</time>
      </trkpt>
      <trkpt lat="56.868944396429" lon="14.788765610747">
        <ele>168.6</ele>
        <time>2020-02-02T15:02:50Z</time>
      </trkpt>
      <trkpt lat="56.868930985389" lon="14.788779273244">
        <ele>169.2</ele>
        <time>2020-02-02T15:02:51Z</time>
      </trkpt>
      <trkpt lat="56.868910617372" lon="14.78879637232">
        <ele>170</ele>
        <time>2020-02-02T15:02:52Z</time>
      </trkpt>
      <trkpt lat="56.868852530805" lon="14.788830654291">
        <ele>170.4</ele>
        <time>2020-02-02T15:02:55Z</time>
      </trkpt>
      <trkpt lat="56.868776758429" lon="14.788883879356">
        <ele>171</ele>
        <time>2020-02-02T15:03:00Z</time>
      </trkpt>
      <trkpt lat="56.868701991881" lon="14.788943642303">
        <ele>172.2</ele>
        <time>2020-02-02T15:03:04Z</time>
      </trkpt>
      <trkpt lat="56.868654131232" lon="14.789003824345">
        <ele>173.4</ele>
        <time>2020-02-02T15:03:07Z</time>
      </trkpt>
      <trkpt lat="56.868541394677" lon="14.789116728538">
        <ele>174.6</ele>
        <time>2020-02-02T15:03:13Z</time>
      </trkpt>
      <trkpt lat="56.868354813583" lon="14.789173222544">
        <ele>175.4</ele>
        <time>2020-02-02T15:03:20Z</time>
      </trkpt>
      <trkpt lat="56.86832405201" lon="14.789179676607">
        <ele>175.6</ele>
        <time>2020-02-02T15:03:21Z</time>
      </trkpt>
      <trkpt lat="56.868206537772" lon="14.789173809277">
        <ele>175.8</ele>
        <time>2020-02-02T15:03:25Z</time>
      </trkpt>
      <trkpt lat="56.86801392171" lon="14.789254694612">
        <ele>174.8</ele>
        <time>2020-02-02T15:03:32Z</time>
      </trkpt>
      <trkpt lat="56.867989362743" lon="14.789256957725">
        <ele>174.6</ele>
        <time>2020-02-02T15:03:33Z</time>
      </trkpt>
      <trkpt lat="56.867885594821" lon="14.789267016005">
        <ele>174</ele>
        <time>2020-02-02T15:03:37Z</time>
      </trkpt>
      <trkpt lat="56.867842847131" lon="14.789256873906">
        <ele>174</ele>
        <time>2020-02-02T15:03:39Z</time>
      </trkpt>
      <trkpt lat="56.86773983358" lon="14.789281432873">
        <ele>173.4</ele>
        <time>2020-02-02T15:03:42Z</time>
      </trkpt>
      <trkpt lat="56.867614524175" lon="14.789323929106">
        <ele>172.4</ele>
        <time>2020-02-02T15:03:46Z</time>
      </trkpt>
      <trkpt lat="56.86743389423" lon="14.789398276559">
        <ele>171.6</ele>
        <time>2020-02-02T15:03:51Z</time>
      </trkpt>
      <trkpt lat="56.8673190622" lon="14.789415543273">
        <ele>171.4</ele>
        <time>2020-02-02T15:03:54Z</time>
      </trkpt>
      <trkpt lat="56.867217808848" lon="14.789232398758">
        <ele>170.2</ele>
        <time>2020-02-02T15:04:00Z</time>
      </trkpt>
      <trkpt lat="56.867173468597" lon="14.78913919203">
        <ele>170</ele>
        <time>2020-02-02T15:04:02Z</time>
      </trkpt>
      <trkpt lat="56.867060312947" lon="14.788899302052">
        <ele>169.8</ele>
        <time>2020-02-02T15:04:07Z</time>
      </trkpt>
      <trkpt lat="56.866909690204" lon="14.788749852775">
        <ele>169.2</ele>
        <time>2020-02-02T15:04:12Z</time>
      </trkpt>
      <trkpt lat="56.866834672199" lon="14.788621022972">
        <ele>169</ele>
        <time>2020-02-02T15:04:17Z</time>
      </trkpt>
      <trkpt lat="56.866816399657" lon="14.788550028279">
        <ele>169.2</ele>
        <time>2020-02-02T15:04:19Z</time>
      </trkpt>
      <trkpt lat="56.866753116312" lon="14.788374678931">
        <ele>168.4</ele>
        <time>2020-02-02T15:04:24Z</time>
      </trkpt>
      <trkpt lat="56.866654293711" lon="14.788207460026">
        <ele>168.8</ele>
        <time>2020-02-02T15:04:29Z</time>
      </trkpt>
      <trkpt lat="56.866474837232" lon="14.788067566115">
        <ele>168.8</ele>
        <time>2020-02-02T15:04:36Z</time>
      </trkpt>
      <trkpt lat="56.866432927732" lon="14.787944938918">
        <ele>168</ele>
        <time>2020-02-02T15:04:39Z</time>
      </trkpt>
      <trkpt lat="56.866395628277" lon="14.787788784121">
        <ele>167</ele>
        <time>2020-02-02T15:04:43Z</time>
      </trkpt>
      <trkpt lat="56.866390012404" lon="14.787748970096">
        <ele>166.4</ele>
        <time>2020-02-02T15:04:44Z</time>
      </trkpt>
      <trkpt lat="56.866379702667" lon="14.787627600184">
        <ele>165.8</ele>
        <time>2020-02-02T15:04:46Z</time>
      </trkpt>
      <trkpt lat="56.866395795915" lon="14.787336412978">
        <ele>165.2</ele>
        <time>2020-02-02T15:04:51Z</time>
      </trkpt>
      <trkpt lat="56.86640124415" lon="14.787219988387">
        <ele>164.6</ele>
        <time>2020-02-02T15:04:53Z</time>
      </trkpt>
      <trkpt lat="56.866400322141" lon="14.787103479977">
        <ele>164.6</ele>
        <time>2020-02-02T15:04:55Z</time>
      </trkpt>
      <trkpt lat="56.866367548912" lon="14.786768036339">
        <ele>165.2</ele>
        <time>2020-02-02T15:05:02Z</time>
      </trkpt>
      <trkpt lat="56.866319185349" lon="14.786394874151">
        <ele>165.2</ele>
        <time>2020-02-02T15:05:08Z</time>
      </trkpt>
      <trkpt lat="56.866327902525" lon="14.786054233735">
        <ele>165</ele>
        <time>2020-02-02T15:05:13Z</time>
      </trkpt>
      <trkpt lat="56.866314407666" lon="14.785720969391">
        <ele>164.8</ele>
        <time>2020-02-02T15:05:18Z</time>
      </trkpt>
      <trkpt lat="56.866249783217" lon="14.785369767781">
        <ele>165.4</ele>
        <time>2020-02-02T15:05:25Z</time>
      </trkpt>
      <trkpt lat="56.866098406103" lon="14.785155107322">
        <ele>165.2</ele>
        <time>2020-02-02T15:05:32Z</time>
      </trkpt>
      <trkpt lat="56.865903107833" lon="14.785061481499">
        <ele>165.4</ele>
        <time>2020-02-02T15:05:39Z</time>
      </trkpt>
      <trkpt lat="56.865807637992" lon="14.784814550725">
        <ele>164.2</ele>
        <time>2020-02-02T15:05:46Z</time>
      </trkpt>
      <trkpt lat="56.865769667985" lon="14.784485142055">
        <ele>164.6</ele>
        <time>2020-02-02T15:05:52Z</time>
      </trkpt>
      <trkpt lat="56.865688112098" lon="14.784192027012">
        <ele>164.8</ele>
        <time>2020-02-02T15:05:57Z</time>
      </trkpt>
      <trkpt lat="56.865587613117" lon="14.783863875627">
        <ele>165.2</ele>
        <time>2020-02-02T15:06:03Z</time>
      </trkpt>
      <trkpt lat="56.865487281774" lon="14.783548967644">
        <ele>164.8</ele>
        <time>2020-02-02T15:06:09Z</time>
      </trkpt>
      <trkpt lat="56.865379909635" lon="14.783270269469">
        <ele>165.8</ele>
        <time>2020-02-02T15:06:16Z</time>
      </trkpt>
      <trkpt lat="56.865270190564" lon="14.783008167456">
        <ele>167</ele>
        <time>2020-02-02T15:06:23Z</time>
      </trkpt>
      <trkpt lat="56.865159800941" lon="14.782703904486">
        <ele>167.4</ele>
        <time>2020-02-02T15:06:30Z</time>
      </trkpt>
      <trkpt lat="56.865058044675" lon="14.782368963762">
        <ele>167.2</ele>
        <time>2020-02-02T15:06:36Z</time>
      </trkpt>
      <trkpt lat="56.864969196535" lon="14.782084314438">
        <ele>166.6</ele>
        <time>2020-02-02T15:06:42Z</time>
      </trkpt>
      <trkpt lat="56.864878336739" lon="14.781813243792">
        <ele>165.8</ele>
        <time>2020-02-02T15:06:48Z</time>
      </trkpt>
      <trkpt lat="56.864777837758" lon="14.78151501579">
        <ele>166</ele>
        <time>2020-02-02T15:06:54Z</time>
      </trkpt>
      <trkpt lat="56.864759816673" lon="14.781456258671">
        <ele>166</ele>
        <time>2020-02-02T15:06:55Z</time>
      </trkpt>
      <trkpt lat="56.864666777583" lon="14.781164065637">
        <ele>166</ele>
        <time>2020-02-02T15:07:01Z</time>
      </trkpt>
      <trkpt lat="56.864575079597" lon="14.780867765472">
        <ele>166.2</ele>
        <time>2020-02-02T15:07:07Z</time>
      </trkpt>
      <trkpt lat="56.864462678318" lon="14.780557467534">
        <ele>166.2</ele>
        <time>2020-02-02T15:07:14Z</time>
      </trkpt>
      <trkpt lat="56.864362598432" lon="14.780230238158">
        <ele>165.6</ele>
        <time>2020-02-02T15:07:21Z</time>
      </trkpt>
      <trkpt lat="56.864268469695" lon="14.780046758367">
        <ele>165</ele>
        <time>2020-02-02T15:07:26Z</time>
      </trkpt>
      <trkpt lat="56.864232762801" lon="14.780071484972">
        <ele>165</ele>
        <time>2020-02-02T15:07:29Z</time>
      </trkpt>
      <trkpt lat="56.864205270169" lon="14.780114987033">
        <ele>164.8</ele>
        <time>2020-02-02T15:07:31Z</time>
      </trkpt>
      <trkpt lat="56.864145758679" lon="14.780235267298">
        <ele>164.8</ele>
        <time>2020-02-02T15:07:35Z</time>
      </trkpt>
      <trkpt lat="56.86396881677" lon="14.780431990491">
        <ele>164.4</ele>
        <time>2020-02-02T15:07:43Z</time>
      </trkpt>
      <trkpt lat="56.863770417197" lon="14.78050415865">
        <ele>164.4</ele>
        <time>2020-02-02T15:07:50Z</time>
      </trkpt>
      <trkpt lat="56.863635887702" lon="14.780522682649">
        <ele>164.6</ele>
        <time>2020-02-02T15:07:56Z</time>
      </trkpt>
      <trkpt lat="56.86361677697" lon="14.780498458958">
        <ele>164.8</ele>
        <time>2020-02-02T15:08:00Z</time>
      </trkpt>
      <trkpt lat="56.863572520538" lon="14.780294192055">
        <ele>164.2</ele>
        <time>2020-02-02T15:08:07Z</time>
      </trkpt>
      <trkpt lat="56.863401278321" lon="14.780100318708">
        <ele>164.6</ele>
        <time>2020-02-02T15:08:14Z</time>
      </trkpt>
      <trkpt lat="56.86337034911" lon="14.780038544105">
        <ele>165</ele>
        <time>2020-02-02T15:08:16Z</time>
      </trkpt>
      <trkpt lat="56.863202375834" lon="14.779817429583">
        <ele>165.8</ele>
        <time>2020-02-02T15:08:22Z</time>
      </trkpt>
      <trkpt lat="56.863135236815" lon="14.77969698168">
        <ele>165.6</ele>
        <time>2020-02-02T15:08:26Z</time>
      </trkpt>
      <trkpt lat="56.863101960672" lon="14.779654820723">
        <ele>165.2</ele>
        <time>2020-02-02T15:08:28Z</time>
      </trkpt>
      <trkpt lat="56.862926611324" lon="14.779497241003">
        <ele>165.6</ele>
        <time>2020-02-02T15:08:35Z</time>
      </trkpt>
      <trkpt lat="56.862861148685" lon="14.779439741169">
        <ele>165.8</ele>
        <time>2020-02-02T15:08:38Z</time>
      </trkpt>
      <trkpt lat="56.862676243971" lon="14.779370841951">
        <ele>165.8</ele>
        <time>2020-02-02T15:08:46Z</time>
      </trkpt>
      <trkpt lat="56.862627964227" lon="14.779291549177">
        <ele>166</ele>
        <time>2020-02-02T15:08:49Z</time>
      </trkpt>
      <trkpt lat="56.862458314571" lon="14.779137406036">
        <ele>165.4</ele>
        <time>2020-02-02T15:08:55Z</time>
      </trkpt>
      <trkpt lat="56.862276846436" lon="14.779015952305">
        <ele>164.8</ele>
        <time>2020-02-02T15:09:01Z</time>
      </trkpt>
      <trkpt lat="56.862082805451" lon="14.778968259294">
        <ele>165</ele>
        <time>2020-02-02T15:09:08Z</time>
      </trkpt>
      <trkpt lat="56.862048774937" lon="14.778966834371">
        <ele>165</ele>
        <time>2020-02-02T15:09:09Z</time>
      </trkpt>
      <trkpt lat="56.861893039235" lon="14.778985274551">
        <ele>165</ele>
        <time>2020-02-02T15:09:14Z</time>
      </trkpt>
      <trkpt lat="56.86171827662" lon="14.779037996702">
        <ele>165.2</ele>
        <time>2020-02-02T15:09:20Z</time>
      </trkpt>
      <trkpt lat="56.861542508177" lon="14.779073200682">
        <ele>165.6</ele>
        <time>2020-02-02T15:09:27Z</time>
      </trkpt>
      <trkpt lat="56.861363051698" lon="14.779229104022">
        <ele>165</ele>
        <time>2020-02-02T15:09:34Z</time>
      </trkpt>
      <trkpt lat="56.861179655726" lon="14.779316275782">
        <ele>165.4</ele>
        <time>2020-02-02T15:09:41Z</time>
      </trkpt>
      <trkpt lat="56.861069098465" lon="14.77941702622">
        <ele>165.8</ele>
        <time>2020-02-02T15:09:46Z</time>
      </trkpt>
      <trkpt lat="56.860898610619" lon="14.779394143633">
        <ele>166.4</ele>
        <time>2020-02-02T15:09:53Z</time>
      </trkpt>
      <trkpt lat="56.860813785791" lon="14.779344690423">
        <ele>165.4</ele>
        <time>2020-02-02T15:09:57Z</time>
      </trkpt>
      <trkpt lat="56.860667940731" lon="14.779102872608">
        <ele>165</ele>
        <time>2020-02-02T15:10:04Z</time>
      </trkpt>
      <trkpt lat="56.860559227488" lon="14.778880836077">
        <ele>165.2</ele>
        <time>2020-02-02T15:10:10Z</time>
      </trkpt>
      <trkpt lat="56.860543218059" lon="14.778725687108">
        <ele>164.8</ele>
        <time>2020-02-02T15:10:13Z</time>
      </trkpt>
      <trkpt lat="56.860504158405" lon="14.778392338945">
        <ele>164.6</ele>
        <time>2020-02-02T15:10:19Z</time>
      </trkpt>
      <trkpt lat="56.860470546986" lon="14.778273399784">
        <ele>164.8</ele>
        <time>2020-02-02T15:10:22Z</time>
      </trkpt>
      <trkpt lat="56.860400893397" lon="14.777938878155">
        <ele>164</ele>
        <time>2020-02-02T15:10:31Z</time>
      </trkpt>
      <trkpt lat="56.860388236728" lon="14.777898561216">
        <ele>163.8</ele>
        <time>2020-02-02T15:10:32Z</time>
      </trkpt>
      <trkpt lat="56.860319588967" lon="14.77781943608">
        <ele>163.8</ele>
        <time>2020-02-02T15:10:35Z</time>
      </trkpt>
      <trkpt lat="56.860214899036" lon="14.777803761927">
        <ele>164.2</ele>
        <time>2020-02-02T15:10:40Z</time>
      </trkpt>
      <trkpt lat="56.860102330119" lon="14.778062259723">
        <ele>164.2</ele>
        <time>2020-02-02T15:10:49Z</time>
      </trkpt>
      <trkpt lat="56.86003686748" lon="14.778040131507">
        <ele>165</ele>
        <time>2020-02-02T15:10:52Z</time>
      </trkpt>
      <trkpt lat="56.859999735663" lon="14.77804155643">
        <ele>165.4</ele>
        <time>2020-02-02T15:10:54Z</time>
      </trkpt>
      <trkpt lat="56.859952461747" lon="14.778081873369">
        <ele>165.2</ele>
        <time>2020-02-02T15:10:57Z</time>
      </trkpt>
      <trkpt lat="56.859920275251" lon="14.778278009829">
        <ele>165</ele>
        <time>2020-02-02T15:11:03Z</time>
      </trkpt>
      <trkpt lat="56.859896303017" lon="14.778332911274">
        <ele>165</ele>
        <time>2020-02-02T15:11:05Z</time>
      </trkpt>
      <trkpt lat="56.859868978023" lon="14.778470793529">
        <ele>165</ele>
        <time>2020-02-02T15:11:09Z</time>
      </trkpt>
      <trkpt lat="56.859850202567" lon="14.778498034704">
        <ele>165</ele>
        <time>2020-02-02T15:11:10Z</time>
      </trkpt>
      <trkpt lat="56.859770993612" lon="14.778644047402">
        <ele>165.2</ele>
        <time>2020-02-02T15:11:16Z</time>
      </trkpt>
      <trkpt lat="56.859741154048" lon="14.778707749842">
        <ele>165</ele>
        <time>2020-02-02T15:11:18Z</time>
      </trkpt>
      <trkpt lat="56.859572845496" lon="14.778865161924">
        <ele>165.2</ele>
        <time>2020-02-02T15:11:25Z</time>
      </trkpt>
      <trkpt lat="56.859397244691" lon="14.77905911909">
        <ele>165.2</ele>
        <time>2020-02-02T15:11:32Z</time>
      </trkpt>
      <trkpt lat="56.859278892263" lon="14.779127347756">
        <ele>165</ele>
        <time>2020-02-02T15:11:38Z</time>
      </trkpt>
      <trkpt lat="56.859230444881" lon="14.779136903122">
        <ele>165.2</ele>
        <time>2020-02-02T15:11:40Z</time>
      </trkpt>
      <trkpt lat="56.859053251515" lon="14.779292052091">
        <ele>165.2</ele>
        <time>2020-02-02T15:11:49Z</time>
      </trkpt>
      <trkpt lat="56.859035146611" lon="14.779293057919">
        <ele>165</ele>
        <time>2020-02-02T15:11:50Z</time>
      </trkpt>
      <trkpt lat="56.858843117282" lon="14.779181411011">
        <ele>164.8</ele>
        <time>2020-02-02T15:11:59Z</time>
      </trkpt>
      <trkpt lat="56.858758040997" lon="14.779124833186">
        <ele>165.4</ele>
        <time>2020-02-02T15:12:02Z</time>
      </trkpt>
      <trkpt lat="56.858665672459" lon="14.779137406036">
        <ele>166</ele>
        <time>2020-02-02T15:12:05Z</time>
      </trkpt>
      <trkpt lat="56.858457382244" lon="14.77916305465">
        <ele>166.6</ele>
        <time>2020-02-02T15:12:11Z</time>
      </trkpt>
      <trkpt lat="56.858380520221" lon="14.779158276967">
        <ele>167.2</ele>
        <time>2020-02-02T15:12:13Z</time>
      </trkpt>
      <trkpt lat="56.858314638487" lon="14.77917059836">
        <ele>166.8</ele>
        <time>2020-02-02T15:12:15Z</time>
      </trkpt>
      <trkpt lat="56.858134427637" lon="14.779237234465">
        <ele>166.8</ele>
        <time>2020-02-02T15:12:21Z</time>
      </trkpt>
      <trkpt lat="56.858087740454" lon="14.779281155621">
        <ele>167</ele>
        <time>2020-02-02T15:12:23Z</time>
      </trkpt>
      <trkpt lat="56.857918006979" lon="14.779449296535">
        <ele>166.2</ele>
        <time>2020-02-02T15:12:30Z</time>
      </trkpt>
      <trkpt lat="56.857863776086" lon="14.779487015085">
        <ele>166.2</ele>
        <time>2020-02-02T15:12:32Z</time>
      </trkpt>
      <trkpt lat="56.857812143582" lon="14.779516016459">
        <ele>166</ele>
        <time>2020-02-02T15:12:34Z</time>
      </trkpt>
      <trkpt lat="56.857618856968" lon="14.779576617596">
        <ele>166</ele>
        <time>2020-02-02T15:12:40Z</time>
      </trkpt>
      <trkpt lat="56.857475107383" lon="14.779540323969">
        <ele>165.8</ele>
        <time>2020-02-02T15:12:44Z</time>
      </trkpt>
      <trkpt lat="56.857376033325" lon="14.779454577132">
        <ele>165</ele>
        <time>2020-02-02T15:12:48Z</time>
      </trkpt>
      <trkpt lat="56.857219962347" lon="14.779275120653">
        <ele>165.4</ele>
        <time>2020-02-02T15:12:54Z</time>
      </trkpt>
      <trkpt lat="56.857056012383" lon="14.7791085723">
        <ele>165.4</ele>
        <time>2020-02-02T15:13:01Z</time>
      </trkpt>
      <trkpt lat="56.856899857586" lon="14.778925930699">
        <ele>165.8</ele>
        <time>2020-02-02T15:13:06Z</time>
      </trkpt>
      <trkpt lat="56.856752587603" lon="14.778846637925">
        <ele>166</ele>
        <time>2020-02-02T15:13:11Z</time>
      </trkpt>
      <trkpt lat="56.856715623424" lon="14.778822665691">
        <ele>166</ele>
        <time>2020-02-02T15:13:13Z</time>
      </trkpt>
      <trkpt lat="56.856519989878" lon="14.778694087345">
        <ele>165.6</ele>
        <time>2020-02-02T15:13:20Z</time>
      </trkpt>
      <trkpt lat="56.85633961139" lon="14.778514547047">
        <ele>166.6</ele>
        <time>2020-02-02T15:13:28Z</time>
      </trkpt>
      <trkpt lat="56.856181947851" lon="14.778285721177">
        <ele>166</ele>
        <time>2020-02-02T15:13:36Z</time>
      </trkpt>
      <trkpt lat="56.85608647801" lon="14.77804239462">
        <ele>166.2</ele>
        <time>2020-02-02T15:13:42Z</time>
      </trkpt>
      <trkpt lat="56.856101062516" lon="14.777961593104">
        <ele>166</ele>
        <time>2020-02-02T15:13:44Z</time>
      </trkpt>
      <trkpt lat="56.856249422146" lon="14.777726564628">
        <ele>165</ele>
        <time>2020-02-02T15:13:53Z</time>
      </trkpt>
      <trkpt lat="56.856267359412" lon="14.777692282657">
        <ele>165</ele>
        <time>2020-02-02T15:13:54Z</time>
      </trkpt>
      <trkpt lat="56.856422927476" lon="14.777462870054">
        <ele>165.8</ele>
        <time>2020-02-02T15:14:01Z</time>
      </trkpt>
      <trkpt lat="56.85656424631" lon="14.777365220919">
        <ele>166.2</ele>
        <time>2020-02-02T15:14:07Z</time>
      </trkpt>
      <trkpt lat="56.856751330318" lon="14.777284503222">
        <ele>166</ele>
        <time>2020-02-02T15:14:15Z</time>
      </trkpt>
      <trkpt lat="56.856943443466" lon="14.777251227079">
        <ele>166.4</ele>
        <time>2020-02-02T15:14:22Z</time>
      </trkpt>
      <trkpt lat="56.857141172487" lon="14.777161792206">
        <ele>166.6</ele>
        <time>2020-02-02T15:14:29Z</time>
      </trkpt>
      <trkpt lat="56.857337476585" lon="14.777089707866">
        <ele>166.6</ele>
        <time>2020-02-02T15:14:36Z</time>
      </trkpt>
      <trkpt lat="56.857473850098" lon="14.777030364014">
        <ele>167.2</ele>
        <time>2020-02-02T15:14:41Z</time>
      </trkpt>
      <trkpt lat="56.857673004042" lon="14.777123067828">
        <ele>166.6</ele>
        <time>2020-02-02T15:14:47Z</time>
      </trkpt>
      <trkpt lat="56.85786260262" lon="14.777160032007">
        <ele>166.6</ele>
        <time>2020-02-02T15:14:53Z</time>
      </trkpt>
      <trkpt lat="56.858036191769" lon="14.777325574532">
        <ele>166.6</ele>
        <time>2020-02-02T15:15:00Z</time>
      </trkpt>
      <trkpt lat="56.858075921975" lon="14.777369076593">
        <ele>166.2</ele>
        <time>2020-02-02T15:15:02Z</time>
      </trkpt>
      <trkpt lat="56.858255546092" lon="14.777473682705">
        <ele>165.4</ele>
        <time>2020-02-02T15:15:07Z</time>
      </trkpt>
      <trkpt lat="56.858432655639" lon="14.777555825325">
        <ele>165.6</ele>
        <time>2020-02-02T15:15:13Z</time>
      </trkpt>
      <trkpt lat="56.85862284095" lon="14.77762078505">
        <ele>165.6</ele>
        <time>2020-02-02T15:15:19Z</time>
      </trkpt>
      <trkpt lat="56.858843871653" lon="14.77763587247">
        <ele>166</ele>
        <time>2020-02-02T15:15:25Z</time>
      </trkpt>
      <trkpt lat="56.8590461269" lon="14.777577869722">
        <ele>166</ele>
        <time>2020-02-02T15:15:31Z</time>
      </trkpt>
      <trkpt lat="56.859227343578" lon="14.777458427647">
        <ele>165.8</ele>
        <time>2020-02-02T15:15:38Z</time>
      </trkpt>
      <trkpt lat="56.859420462554" lon="14.7773399914">
        <ele>166</ele>
        <time>2020-02-02T15:15:45Z</time>
      </trkpt>
      <trkpt lat="56.859609642037" lon="14.7772226448">
        <ele>166</ele>
        <time>2020-02-02T15:15:51Z</time>
      </trkpt>
      <trkpt lat="56.859788008869" lon="14.777074117532">
        <ele>165.8</ele>
        <time>2020-02-02T15:15:58Z</time>
      </trkpt>
      <trkpt lat="56.859931423178" lon="14.776816541745">
        <ele>166.6</ele>
        <time>2020-02-02T15:16:05Z</time>
      </trkpt>
      <trkpt lat="56.860031335426" lon="14.776725681949">
        <ele>167.2</ele>
        <time>2020-02-02T15:16:08Z</time>
      </trkpt>
      <trkpt lat="56.860204673118" lon="14.776600121087">
        <ele>167.2</ele>
        <time>2020-02-02T15:16:15Z</time>
      </trkpt>
      <trkpt lat="56.860383710502" lon="14.776533149706">
        <ele>167.8</ele>
        <time>2020-02-02T15:16:21Z</time>
      </trkpt>
      <trkpt lat="56.86049535741" lon="14.776482942125">
        <ele>168.2</ele>
        <time>2020-02-02T15:16:25Z</time>
      </trkpt>
      <trkpt lat="56.860674394794" lon="14.776421670436">
        <ele>169</ele>
        <time>2020-02-02T15:16:31Z</time>
      </trkpt>
      <trkpt lat="56.860723931823" lon="14.776404655179">
        <ele>169.4</ele>
        <time>2020-02-02T15:16:33Z</time>
      </trkpt>
      <trkpt lat="56.860905483777" lon="14.77638864575">
        <ele>169.4</ele>
        <time>2020-02-02T15:16:38Z</time>
      </trkpt>
      <trkpt lat="56.860956948643" lon="14.776354531417">
        <ele>169.2</ele>
        <time>2020-02-02T15:16:40Z</time>
      </trkpt>
      <trkpt lat="56.861121150064" lon="14.776125370271">
        <ele>168.6</ele>
        <time>2020-02-02T15:16:48Z</time>
      </trkpt>
      <trkpt lat="56.861229360393" lon="14.776014393915">
        <ele>170</ele>
        <time>2020-02-02T15:16:53Z</time>
      </trkpt>
      <trkpt lat="56.861245872736" lon="14.776000312323">
        <ele>170.4</ele>
        <time>2020-02-02T15:16:54Z</time>
      </trkpt>
      <trkpt lat="56.861268503866" lon="14.775987068921">
        <ele>170.8</ele>
        <time>2020-02-02T15:16:55Z</time>
      </trkpt>
      <trkpt lat="56.861424491025" lon="14.775883803913">
        <ele>171.8</ele>
        <time>2020-02-02T15:17:00Z</time>
      </trkpt>
      <trkpt lat="56.861520882875" lon="14.775724128718">
        <ele>171.2</ele>
        <time>2020-02-02T15:17:03Z</time>
      </trkpt>
      <trkpt lat="56.861530019146" lon="14.775397486075">
        <ele>171</ele>
        <time>2020-02-02T15:17:08Z</time>
      </trkpt>
      <trkpt lat="56.86148945075" lon="14.775031280864">
        <ele>170.8</ele>
        <time>2020-02-02T15:17:14Z</time>
      </trkpt>
      <trkpt lat="56.861399680601" lon="14.774725760609">
        <ele>170.2</ele>
        <time>2020-02-02T15:17:20Z</time>
      </trkpt>
      <trkpt lat="56.8613427675" lon="14.774382102709">
        <ele>169.8</ele>
        <time>2020-02-02T15:17:26Z</time>
      </trkpt>
      <trkpt lat="56.861324578777" lon="14.774277664235">
        <ele>169.6</ele>
        <time>2020-02-02T15:17:28Z</time>
      </trkpt>
      <trkpt lat="56.861193737318" lon="14.774042803397">
        <ele>169.6</ele>
        <time>2020-02-02T15:17:34Z</time>
      </trkpt>
      <trkpt lat="56.861013107373" lon="14.773959738768">
        <ele>169.2</ele>
        <time>2020-02-02T15:17:41Z</time>
      </trkpt>
      <trkpt lat="56.860828454116" lon="14.773963929718">
        <ele>169.6</ele>
        <time>2020-02-02T15:17:49Z</time>
      </trkpt>
      <trkpt lat="56.860647488895" lon="14.773960157863">
        <ele>169.4</ele>
        <time>2020-02-02T15:17:56Z</time>
      </trkpt>
      <trkpt lat="56.860572889985" lon="14.773907854807">
        <ele>169.4</ele>
        <time>2020-02-02T15:17:59Z</time>
      </trkpt>
      <trkpt lat="56.860438611947" lon="14.773690093045">
        <ele>169.6</ele>
        <time>2020-02-02T15:18:05Z</time>
      </trkpt>
      <trkpt lat="56.860317325854" lon="14.77341558582">
        <ele>169.6</ele>
        <time>2020-02-02T15:18:11Z</time>
      </trkpt>
      <trkpt lat="56.860198470512" lon="14.773131104134">
        <ele>169.8</ele>
        <time>2020-02-02T15:18:17Z</time>
      </trkpt>
      <trkpt lat="56.86011314277" lon="14.772819213635">
        <ele>170.4</ele>
        <time>2020-02-02T15:18:24Z</time>
      </trkpt>
      <trkpt lat="56.860103168309" lon="14.772703291958">
        <ele>170.6</ele>
        <time>2020-02-02T15:18:26Z</time>
      </trkpt>
      <trkpt lat="56.860035777833" lon="14.772348234674">
        <ele>170.4</ele>
        <time>2020-02-02T15:18:32Z</time>
      </trkpt>
      <trkpt lat="56.859995293256" lon="14.772078588951">
        <ele>169.6</ele>
        <time>2020-02-02T15:18:37Z</time>
      </trkpt>
      <trkpt lat="56.859964364045" lon="14.771747336263">
        <ele>168.6</ele>
        <time>2020-02-02T15:18:43Z</time>
      </trkpt>
      <trkpt lat="56.859967381529" lon="14.771688662963">
        <ele>168.6</ele>
        <time>2020-02-02T15:18:44Z</time>
      </trkpt>
      <trkpt lat="56.860049691787" lon="14.771343161045">
        <ele>167.8</ele>
        <time>2020-02-02T15:18:50Z</time>
      </trkpt>
      <trkpt lat="56.860081207731" lon="14.771016015488">
        <ele>167.6</ele>
        <time>2020-02-02T15:18:55Z</time>
      </trkpt>
      <trkpt lat="56.859954557222" lon="14.770744358109">
        <ele>167.4</ele>
        <time>2020-02-02T15:19:02Z</time>
      </trkpt>
      <trkpt lat="56.859834276957" lon="14.770633130296">
        <ele>166.2</ele>
        <time>2020-02-02T15:19:06Z</time>
      </trkpt>
      <trkpt lat="56.859738890935" lon="14.770485776494">
        <ele>165</ele>
        <time>2020-02-02T15:19:10Z</time>
      </trkpt>
      <trkpt lat="56.859659262885" lon="14.770163492439">
        <ele>164.4</ele>
        <time>2020-02-02T15:19:17Z</time>
      </trkpt>
      <trkpt lat="56.859632524624" lon="14.76978957588">
        <ele>164.6</ele>
        <time>2020-02-02T15:19:23Z</time>
      </trkpt>
      <trkpt lat="56.859594806074" lon="14.769430076189">
        <ele>164.8</ele>
        <time>2020-02-02T15:19:29Z</time>
      </trkpt>
      <trkpt lat="56.859575779161" lon="14.769086585927">
        <ele>164.6</ele>
        <time>2020-02-02T15:19:35Z</time>
      </trkpt>
      <trkpt lat="56.859637302307" lon="14.768743850036">
        <ele>164.4</ele>
        <time>2020-02-02T15:19:42Z</time>
      </trkpt>
      <trkpt lat="56.859693963951" lon="14.768520891496">
        <ele>164.6</ele>
        <time>2020-02-02T15:19:47Z</time>
      </trkpt>
      <trkpt lat="56.859677954522" lon="14.768172288275">
        <ele>165.6</ele>
        <time>2020-02-02T15:19:53Z</time>
      </trkpt>
      <trkpt lat="56.859772418535" lon="14.768026694672">
        <ele>165.4</ele>
        <time>2020-02-02T15:20:00Z</time>
      </trkpt>
      <trkpt lat="56.859800581719" lon="14.768071454018">
        <ele>165.4</ele>
        <time>2020-02-02T15:20:03Z</time>
      </trkpt>
      <trkpt lat="56.859969979918" lon="14.768232554136">
        <ele>165.2</ele>
        <time>2020-02-02T15:20:10Z</time>
      </trkpt>
      <trkpt lat="56.860021612422" lon="14.768322911018">
        <ele>165</ele>
        <time>2020-02-02T15:20:13Z</time>
      </trkpt>
      <trkpt lat="56.86012152467" lon="14.768609823455">
        <ele>164.4</ele>
        <time>2020-02-02T15:20:19Z</time>
      </trkpt>
      <trkpt lat="56.860216910692" lon="14.768911404217">
        <ele>164</ele>
        <time>2020-02-02T15:20:26Z</time>
      </trkpt>
      <trkpt lat="56.86028497172" lon="14.769074348353">
        <ele>164.2</ele>
        <time>2020-02-02T15:20:31Z</time>
      </trkpt>
      <trkpt lat="56.860315314198" lon="14.769143499028">
        <ele>164.2</ele>
        <time>2020-02-02T15:20:33Z</time>
      </trkpt>
      <trkpt lat="56.860329982523" lon="14.769204435441">
        <ele>164.4</ele>
        <time>2020-02-02T15:20:35Z</time>
      </trkpt>
      <trkpt lat="56.860337358595" lon="14.76931348396">
        <ele>164.8</ele>
        <time>2020-02-02T15:20:38Z</time>
      </trkpt>
      <trkpt lat="56.860459650516" lon="14.769549266807">
        <ele>164.2</ele>
        <time>2020-02-02T15:20:44Z</time>
      </trkpt>
      <trkpt lat="56.860561993515" lon="14.769655968394">
        <ele>164.2</ele>
        <time>2020-02-02T15:20:48Z</time>
      </trkpt>
      <trkpt lat="56.860739438338" lon="14.769851518121">
        <ele>164.2</ele>
        <time>2020-02-02T15:20:55Z</time>
      </trkpt>
      <trkpt lat="56.860822335329" lon="14.769925278841">
        <ele>164.4</ele>
        <time>2020-02-02T15:20:59Z</time>
      </trkpt>
      <trkpt lat="56.861006485672" lon="14.770034578817">
        <ele>163.8</ele>
        <time>2020-02-02T15:21:05Z</time>
      </trkpt>
      <trkpt lat="56.861186193608" lon="14.770020245768">
        <ele>163.8</ele>
        <time>2020-02-02T15:21:11Z</time>
      </trkpt>
      <trkpt lat="56.861365901544" lon="14.7700225927">
        <ele>163.8</ele>
        <time>2020-02-02T15:21:17Z</time>
      </trkpt>
      <trkpt lat="56.861567905334" lon="14.76995302293">
        <ele>163.6</ele>
        <time>2020-02-02T15:21:24Z</time>
      </trkpt>
      <trkpt lat="56.861734537506" lon="14.769805417671">
        <ele>163.4</ele>
        <time>2020-02-02T15:21:29Z</time>
      </trkpt>
      <trkpt lat="56.861801005973" lon="14.769743643068">
        <ele>162.8</ele>
        <time>2020-02-02T15:21:31Z</time>
      </trkpt>
      <trkpt lat="56.861826235492" lon="14.769731070218">
        <ele>162.4</ele>
        <time>2020-02-02T15:21:32Z</time>
      </trkpt>
      <trkpt lat="56.862017091355" lon="14.769731237856">
        <ele>162.8</ele>
        <time>2020-02-02T15:21:41Z</time>
      </trkpt>
      <trkpt lat="56.862202079888" lon="14.769802651644">
        <ele>163.2</ele>
        <time>2020-02-02T15:21:48Z</time>
      </trkpt>
      <trkpt lat="56.8623402136" lon="14.769882447332">
        <ele>163.6</ele>
        <time>2020-02-02T15:21:54Z</time>
      </trkpt>
      <trkpt lat="56.862362090359" lon="14.769894768725">
        <ele>163.8</ele>
        <time>2020-02-02T15:21:55Z</time>
      </trkpt>
      <trkpt lat="56.862374830847" lon="14.769910191421">
        <ele>164.2</ele>
        <time>2020-02-02T15:21:56Z</time>
      </trkpt>
      <trkpt lat="56.862447837196" lon="14.769954531672">
        <ele>165</ele>
        <time>2020-02-02T15:21:59Z</time>
      </trkpt>
      <trkpt lat="56.86264782933" lon="14.770026448374">
        <ele>164.6</ele>
        <time>2020-02-02T15:22:05Z</time>
      </trkpt>
      <trkpt lat="56.862788142336" lon="14.770051258798">
        <ele>165.6</ele>
        <time>2020-02-02T15:22:10Z</time>
      </trkpt>
      <trkpt lat="56.862972711774" lon="14.770104316225">
        <ele>165.8</ele>
        <time>2020-02-02T15:22:15Z</time>
      </trkpt>
      <trkpt lat="56.863166501302" lon="14.770007589099">
        <ele>165.8</ele>
        <time>2020-02-02T15:22:22Z</time>
      </trkpt>
      <trkpt lat="56.863337072967" lon="14.769884794264">
        <ele>165.4</ele>
        <time>2020-02-02T15:22:28Z</time>
      </trkpt>
      <trkpt lat="56.863515020704" lon="14.769812039372">
        <ele>165.8</ele>
        <time>2020-02-02T15:22:34Z</time>
      </trkpt>
      <trkpt lat="56.863712414449" lon="14.769726292535">
        <ele>165.2</ele>
        <time>2020-02-02T15:22:40Z</time>
      </trkpt>
      <trkpt lat="56.863900588104" lon="14.769640713336">
        <ele>165.4</ele>
        <time>2020-02-02T15:22:46Z</time>
      </trkpt>
      <trkpt lat="56.864106363749" lon="14.769635684196">
        <ele>165.8</ele>
        <time>2020-02-02T15:22:54Z</time>
      </trkpt>
      <trkpt lat="56.864289256807" lon="14.769544908219">
        <ele>165.4</ele>
        <time>2020-02-02T15:23:01Z</time>
      </trkpt>
      <trkpt lat="56.864484555077" lon="14.769537951242">
        <ele>165.6</ele>
        <time>2020-02-02T15:23:08Z</time>
      </trkpt>
      <trkpt lat="56.864672477275" lon="14.769578016724">
        <ele>164</ele>
        <time>2020-02-02T15:23:15Z</time>
      </trkpt>
      <trkpt lat="56.864761912148" lon="14.769638953137">
        <ele>163.2</ele>
        <time>2020-02-02T15:23:20Z</time>
      </trkpt>
      <trkpt lat="56.86480281582" lon="14.769677426058">
        <ele>163.4</ele>
        <time>2020-02-02T15:23:22Z</time>
      </trkpt>
      <trkpt lat="56.864994845149" lon="14.769657560955">
        <ele>163.4</ele>
        <time>2020-02-02T15:23:29Z</time>
      </trkpt>
      <trkpt lat="56.865033737165" lon="14.769665272303">
        <ele>163.4</ele>
        <time>2020-02-02T15:23:31Z</time>
      </trkpt>
      <trkpt lat="56.865061397435" lon="14.769690585641">
        <ele>163.6</ele>
        <time>2020-02-02T15:23:33Z</time>
      </trkpt>
      <trkpt lat="56.865246721244" lon="14.769701733568">
        <ele>163.6</ele>
        <time>2020-02-02T15:23:41Z</time>
      </trkpt>
      <trkpt lat="56.86526884946" lon="14.76968564032">
        <ele>163.6</ele>
        <time>2020-02-02T15:23:42Z</time>
      </trkpt>
      <trkpt lat="56.865338670687" lon="14.769704499595">
        <ele>164</ele>
        <time>2020-02-02T15:23:46Z</time>
      </trkpt>
      <trkpt lat="56.865427518827" lon="14.769681784646">
        <ele>164.2</ele>
        <time>2020-02-02T15:23:51Z</time>
      </trkpt>
      <trkpt lat="56.865487449412" lon="14.769680862637">
        <ele>163.8</ele>
        <time>2020-02-02T15:23:53Z</time>
      </trkpt>
      <trkpt lat="56.865687441546" lon="14.769677426058">
        <ele>163.4</ele>
        <time>2020-02-02T15:24:00Z</time>
      </trkpt>
      <trkpt lat="56.865887601318" lon="14.769705924518">
        <ele>163</ele>
        <time>2020-02-02T15:24:07Z</time>
      </trkpt>
      <trkpt lat="56.866044678124" lon="14.769734003883">
        <ele>162.8</ele>
        <time>2020-02-02T15:24:12Z</time>
      </trkpt>
      <trkpt lat="56.866185074949" lon="14.769781864532">
        <ele>162.6</ele>
        <time>2020-02-02T15:24:17Z</time>
      </trkpt>
      <trkpt lat="56.866305858128" lon="14.770018820845">
        <ele>163.8</ele>
        <time>2020-02-02T15:24:23Z</time>
      </trkpt>
      <trkpt lat="56.866454217758" lon="14.770229038897">
        <ele>163.4</ele>
        <time>2020-02-02T15:24:30Z</time>
      </trkpt>
      <trkpt lat="56.866644989802" lon="14.770337416864">
        <ele>163.6</ele>
        <time>2020-02-02T15:24:38Z</time>
      </trkpt>
      <trkpt lat="56.866832912" lon="14.770497343516">
        <ele>163.4</ele>
        <time>2020-02-02T15:24:45Z</time>
      </trkpt>
      <trkpt lat="56.867036675989" lon="14.770590634063">
        <ele>164</ele>
        <time>2020-02-02T15:24:51Z</time>
      </trkpt>
      <trkpt lat="56.867063917164" lon="14.770597423402">
        <ele>164</ele>
        <time>2020-02-02T15:24:52Z</time>
      </trkpt>
      <trkpt lat="56.867091577434" lon="14.770630951002">
        <ele>164</ele>
        <time>2020-02-02T15:24:54Z</time>
      </trkpt>
      <trkpt lat="56.867157626806" lon="14.770725415015">
        <ele>164.2</ele>
        <time>2020-02-02T15:24:58Z</time>
      </trkpt>
      <trkpt lat="56.867349153221" lon="14.770756260407">
        <ele>164.2</ele>
        <time>2020-02-02T15:25:05Z</time>
      </trkpt>
      <trkpt lat="56.867463147061" lon="14.770693060881">
        <ele>164</ele>
        <time>2020-02-02T15:25:09Z</time>
      </trkpt>
      <trkpt lat="56.867657858598" lon="14.770627179147">
        <ele>163.4</ele>
        <time>2020-02-02T15:25:16Z</time>
      </trkpt>
      <trkpt lat="56.867846535167" lon="14.77054646145">
        <ele>163.2</ele>
        <time>2020-02-02T15:25:22Z</time>
      </trkpt>
      <trkpt lat="56.868030350234" lon="14.770406986634">
        <ele>164.4</ele>
        <time>2020-02-02T15:25:30Z</time>
      </trkpt>
      <trkpt lat="56.868192037085" lon="14.770245132145">
        <ele>164.4</ele>
        <time>2020-02-02T15:25:38Z</time>
      </trkpt>
      <trkpt lat="56.868210309627" lon="14.770209676708">
        <ele>164.4</ele>
        <time>2020-02-02T15:25:39Z</time>
      </trkpt>
      <trkpt lat="56.868279879397" lon="14.770122840224">
        <ele>164.4</ele>
        <time>2020-02-02T15:25:42Z</time>
      </trkpt>
      <trkpt lat="56.868300079776" lon="14.770077410326">
        <ele>164.4</ele>
        <time>2020-02-02T15:25:44Z</time>
      </trkpt>
      <trkpt lat="56.868326063666" lon="14.770028627668">
        <ele>164</ele>
        <time>2020-02-02T15:25:46Z</time>
      </trkpt>
      <trkpt lat="56.868383395862" lon="14.769927625773">
        <ele>163.6</ele>
        <time>2020-02-02T15:25:50Z</time>
      </trkpt>
      <trkpt lat="56.868526474895" lon="14.769718916463">
        <ele>163</ele>
        <time>2020-02-02T15:25:57Z</time>
      </trkpt>
      <trkpt lat="56.868606689678" lon="14.769537699785">
        <ele>163.4</ele>
        <time>2020-02-02T15:26:02Z</time>
      </trkpt>
      <trkpt lat="56.868766867787" lon="14.769267718786">
        <ele>163.2</ele>
        <time>2020-02-02T15:26:12Z</time>
      </trkpt>
      <trkpt lat="56.86880182031" lon="14.769215164273">
        <ele>162.6</ele>
        <time>2020-02-02T15:26:14Z</time>
      </trkpt>
      <trkpt lat="56.868954706166" lon="14.769038138545">
        <ele>162.6</ele>
        <time>2020-02-02T15:26:20Z</time>
      </trkpt>
      <trkpt lat="56.869128379134" lon="14.768850383985">
        <ele>163.2</ele>
        <time>2020-02-02T15:26:27Z</time>
      </trkpt>
      <trkpt lat="56.869271374348" lon="14.768646033263">
        <ele>163.6</ele>
        <time>2020-02-02T15:26:33Z</time>
      </trkpt>
      <trkpt lat="56.869288221967" lon="14.768621893391">
        <ele>163.6</ele>
        <time>2020-02-02T15:26:34Z</time>
      </trkpt>
      <trkpt lat="56.869373633528" lon="14.768603369392">
        <ele>165</ele>
        <time>2020-02-02T15:26:38Z</time>
      </trkpt>
      <trkpt lat="56.869424344023" lon="14.768621474296">
        <ele>166.4</ele>
        <time>2020-02-02T15:26:41Z</time>
      </trkpt>
      <trkpt lat="56.869582594295" lon="14.768858011514">
        <ele>167</ele>
        <time>2020-02-02T15:26:48Z</time>
      </trkpt>
      <trkpt lat="56.869591562928" lon="14.769004610945">
        <ele>167.4</ele>
        <time>2020-02-02T15:26:50Z</time>
      </trkpt>
      <trkpt lat="56.869680327249" lon="14.76927492722">
        <ele>168.4</ele>
        <time>2020-02-02T15:26:56Z</time>
      </trkpt>
      <trkpt lat="56.869782586429" lon="14.769583967873">
        <ele>168.6</ele>
        <time>2020-02-02T15:27:03Z</time>
      </trkpt>
      <trkpt lat="56.86988476179" lon="14.769894517268">
        <ele>169.2</ele>
        <time>2020-02-02T15:27:10Z</time>
      </trkpt>
      <trkpt lat="56.86989901102" lon="14.769936175311">
        <ele>169.4</ele>
        <time>2020-02-02T15:27:11Z</time>
      </trkpt>
      <trkpt lat="56.869990960463" lon="14.770184195732">
        <ele>170</ele>
        <time>2020-02-02T15:27:17Z</time>
      </trkpt>
      <trkpt lat="56.870189443855" lon="14.770049833875">
        <ele>170.2</ele>
        <time>2020-02-02T15:27:23Z</time>
      </trkpt>
      <trkpt lat="56.870356998036" lon="14.769898624399">
        <ele>169.4</ele>
        <time>2020-02-02T15:27:29Z</time>
      </trkpt>
      <trkpt lat="56.870531928289" lon="14.769743307792">
        <ele>169</ele>
        <time>2020-02-02T15:27:35Z</time>
      </trkpt>
      <trkpt lat="56.870696297348" lon="14.769596373085">
        <ele>169.2</ele>
        <time>2020-02-02T15:27:41Z</time>
      </trkpt>
      <trkpt lat="56.870863180977" lon="14.769436781709">
        <ele>168.8</ele>
        <time>2020-02-02T15:27:47Z</time>
      </trkpt>
      <trkpt lat="56.87094088119" lon="14.76936126079">
        <ele>168.4</ele>
        <time>2020-02-02T15:27:50Z</time>
      </trkpt>
      <trkpt lat="56.871111369036" lon="14.769245087656">
        <ele>168.4</ele>
        <time>2020-02-02T15:27:57Z</time>
      </trkpt>
      <trkpt lat="56.871304068917" lon="14.769192952238">
        <ele>168.2</ele>
        <time>2020-02-02T15:28:05Z</time>
      </trkpt>
      <trkpt lat="56.87137003447" lon="14.769199741577">
        <ele>168.2</ele>
        <time>2020-02-02T15:28:08Z</time>
      </trkpt>
      <trkpt lat="56.871558794858" lon="14.769305185879">
        <ele>168</ele>
        <time>2020-02-02T15:28:17Z</time>
      </trkpt>
      <trkpt lat="56.87172542703" lon="14.769490509688">
        <ele>168.4</ele>
        <time>2020-02-02T15:28:23Z</time>
      </trkpt>
      <trkpt lat="56.871884431673" lon="14.769672313099">
        <ele>168.2</ele>
        <time>2020-02-02T15:28:29Z</time>
      </trkpt>
      <trkpt lat="56.872029019448" lon="14.769904910824">
        <ele>168</ele>
        <time>2020-02-02T15:28:35Z</time>
      </trkpt>
      <trkpt lat="56.872064558704" lon="14.770002392321">
        <ele>168.4</ele>
        <time>2020-02-02T15:28:39Z</time>
      </trkpt>
      <trkpt lat="56.872053326958" lon="14.76994296465">
        <ele>168.4</ele>
        <time>2020-02-02T15:28:41Z</time>
      </trkpt>
      <trkpt lat="56.872146868962" lon="14.769772728261">
        <ele>167.4</ele>
        <time>2020-02-02T15:28:46Z</time>
      </trkpt>
      <trkpt lat="56.872327834183" lon="14.769616992559">
        <ele>167</ele>
        <time>2020-02-02T15:28:54Z</time>
      </trkpt>
      <trkpt lat="56.872508799404" lon="14.769468884386">
        <ele>166.8</ele>
        <time>2020-02-02T15:29:02Z</time>
      </trkpt>
      <trkpt lat="56.872649782962" lon="14.769334606348">
        <ele>166.4</ele>
        <time>2020-02-02T15:29:08Z</time>
      </trkpt>
      <trkpt lat="56.872835861142" lon="14.769227653304">
        <ele>165.4</ele>
        <time>2020-02-02T15:29:15Z</time>
      </trkpt>
      <trkpt lat="56.873000481658" lon="14.76905783601">
        <ele>166</ele>
        <time>2020-02-02T15:29:22Z</time>
      </trkpt>
      <trkpt lat="56.873065022288" lon="14.768908554371">
        <ele>166.2</ele>
        <time>2020-02-02T15:29:26Z</time>
      </trkpt>
      <trkpt lat="56.873077762776" lon="14.768542684436">
        <ele>165.6</ele>
        <time>2020-02-02T15:29:32Z</time>
      </trkpt>
      <trkpt lat="56.873067453039" lon="14.768432630089">
        <ele>165.2</ele>
        <time>2020-02-02T15:29:34Z</time>
      </trkpt>
      <trkpt lat="56.873051108334" lon="14.768079333004">
        <ele>165</ele>
        <time>2020-02-02T15:29:40Z</time>
      </trkpt>
      <trkpt lat="56.873049934868" lon="14.767732573801">
        <ele>165.4</ele>
        <time>2020-02-02T15:29:47Z</time>
      </trkpt>
      <trkpt lat="56.8729936085" lon="14.767403919502">
        <ele>165.8</ele>
        <time>2020-02-02T15:29:53Z</time>
      </trkpt>
      <trkpt lat="56.872940634892" lon="14.767073337366">
        <ele>165.2</ele>
        <time>2020-02-02T15:30:00Z</time>
      </trkpt>
      <trkpt lat="56.872964523307" lon="14.766731942579">
        <ele>165</ele>
        <time>2020-02-02T15:30:07Z</time>
      </trkpt>
      <trkpt lat="56.872987908808" lon="14.76664217243">
        <ele>165.2</ele>
        <time>2020-02-02T15:30:09Z</time>
      </trkpt>
      <trkpt lat="56.873075499663" lon="14.766395828389">
        <ele>166.4</ele>
        <time>2020-02-02T15:30:15Z</time>
      </trkpt>
      <trkpt lat="56.873156384998" lon="14.766045129693">
        <ele>166.8</ele>
        <time>2020-02-02T15:30:22Z</time>
      </trkpt>
      <trkpt lat="56.873201814896" lon="14.76588863962">
        <ele>167</ele>
        <time>2020-02-02T15:30:25Z</time>
      </trkpt>
      <trkpt lat="56.873283873697" lon="14.765584041374">
        <ele>167</ele>
        <time>2020-02-02T15:30:31Z</time>
      </trkpt>
      <trkpt lat="56.873374733493" lon="14.765300062602">
        <ele>165.8</ele>
        <time>2020-02-02T15:30:37Z</time>
      </trkpt>
      <trkpt lat="56.873448242756" lon="14.765084396315">
        <ele>165.4</ele>
        <time>2020-02-02T15:30:42Z</time>
      </trkpt>
      <trkpt lat="56.873503311839" lon="14.764748785039">
        <ele>165.8</ele>
        <time>2020-02-02T15:30:49Z</time>
      </trkpt>
      <trkpt lat="56.873575982912" lon="14.764453323064">
        <ele>165.4</ele>
        <time>2020-02-02T15:30:55Z</time>
      </trkpt>
      <trkpt lat="56.873752673364" lon="14.764319380302">
        <ele>165.8</ele>
        <time>2020-02-02T15:31:02Z</time>
      </trkpt>
      <trkpt lat="56.873929112359" lon="14.764152831949">
        <ele>164.8</ele>
        <time>2020-02-02T15:31:10Z</time>
      </trkpt>
      <trkpt lat="56.874032712643" lon="14.764078065401">
        <ele>164.2</ele>
        <time>2020-02-02T15:31:14Z</time>
      </trkpt>
      <trkpt lat="56.874187526336" lon="14.763896094352">
        <ele>164.4</ele>
        <time>2020-02-02T15:31:20Z</time>
      </trkpt>
      <trkpt lat="56.87431711051" lon="14.763633740882">
        <ele>164.6</ele>
        <time>2020-02-02T15:31:27Z</time>
      </trkpt>
      <trkpt lat="56.874340998925" lon="14.763485129795">
        <ele>164.4</ele>
        <time>2020-02-02T15:31:30Z</time>
      </trkpt>
      <trkpt lat="56.874296323398" lon="14.763130407787">
        <ele>163.4</ele>
        <time>2020-02-02T15:31:36Z</time>
      </trkpt>
      <trkpt lat="56.874282577082" lon="14.763066202433">
        <ele>163.2</ele>
        <time>2020-02-02T15:31:37Z</time>
      </trkpt>
      <trkpt lat="56.874175540219" lon="14.762743918378">
        <ele>163.4</ele>
        <time>2020-02-02T15:31:44Z</time>
      </trkpt>
      <trkpt lat="56.874072526668" lon="14.762438146666">
        <ele>163.8</ele>
        <time>2020-02-02T15:31:50Z</time>
      </trkpt>
      <trkpt lat="56.874043190018" lon="14.762114353869">
        <ele>163.8</ele>
        <time>2020-02-02T15:31:57Z</time>
      </trkpt>
      <trkpt lat="56.874051488099" lon="14.762031037783">
        <ele>164</ele>
        <time>2020-02-02T15:31:59Z</time>
      </trkpt>
      <trkpt lat="56.874043525294" lon="14.761853425322">
        <ele>164.2</ele>
        <time>2020-02-02T15:32:02Z</time>
      </trkpt>
      <trkpt lat="56.874037322688" lon="14.761475317813">
        <ele>163.4</ele>
        <time>2020-02-02T15:32:09Z</time>
      </trkpt>
      <trkpt lat="56.87400278926" lon="14.76127272729">
        <ele>163.2</ele>
        <time>2020-02-02T15:32:13Z</time>
      </trkpt>
      <trkpt lat="56.873989797315" lon="14.76092655482">
        <ele>164.2</ele>
        <time>2020-02-02T15:32:20Z</time>
      </trkpt>
      <trkpt lat="56.873951492032" lon="14.760574431201">
        <ele>164.8</ele>
        <time>2020-02-02T15:32:27Z</time>
      </trkpt>
      <trkpt lat="56.873941433752" lon="14.760539813954">
        <ele>165.2</ele>
        <time>2020-02-02T15:32:28Z</time>
      </trkpt>
      <trkpt lat="56.873847472653" lon="14.760294643379">
        <ele>166.4</ele>
        <time>2020-02-02T15:32:34Z</time>
      </trkpt>
      <trkpt lat="56.873712440244" lon="14.76003388247">
        <ele>167</ele>
        <time>2020-02-02T15:32:41Z</time>
      </trkpt>
      <trkpt lat="56.873528206082" lon="14.759884600831">
        <ele>166.8</ele>
        <time>2020-02-02T15:32:48Z</time>
      </trkpt>
      <trkpt lat="56.873495265215" lon="14.759852917249">
        <ele>167.2</ele>
        <time>2020-02-02T15:32:50Z</time>
      </trkpt>
      <trkpt lat="56.873478836691" lon="14.759835482897">
        <ele>167.6</ele>
        <time>2020-02-02T15:32:51Z</time>
      </trkpt>
      <trkpt lat="56.873362998833" lon="14.75954354132">
        <ele>167.6</ele>
        <time>2020-02-02T15:32:59Z</time>
      </trkpt>
      <trkpt lat="56.873350006888" lon="14.759377998795">
        <ele>166.4</ele>
        <time>2020-02-02T15:33:02Z</time>
      </trkpt>
      <trkpt lat="56.873343469006" lon="14.759132409125">
        <ele>165.2</ele>
        <time>2020-02-02T15:33:06Z</time>
      </trkpt>
      <trkpt lat="56.873419744296" lon="14.758799815333">
        <ele>164</ele>
        <time>2020-02-02T15:33:13Z</time>
      </trkpt>
      <trkpt lat="56.873592243798" lon="14.758629578944">
        <ele>164</ele>
        <time>2020-02-02T15:33:20Z</time>
      </trkpt>
      <trkpt lat="56.87376306692" lon="14.758510388326">
        <ele>164</ele>
        <time>2020-02-02T15:33:27Z</time>
      </trkpt>
      <trkpt lat="56.873954258059" lon="14.758401339807">
        <ele>164</ele>
        <time>2020-02-02T15:33:34Z</time>
      </trkpt>
      <trkpt lat="56.8741335469" lon="14.758229929952">
        <ele>164.8</ele>
        <time>2020-02-02T15:33:42Z</time>
      </trkpt>
      <trkpt lat="56.874172858011" lon="14.758204784252">
        <ele>165</ele>
        <time>2020-02-02T15:33:44Z</time>
      </trkpt>
      <trkpt lat="56.874235135528" lon="14.758199000741">
        <ele>166.2</ele>
        <time>2020-02-02T15:33:47Z</time>
      </trkpt>
      <trkpt lat="56.874343178219" lon="14.758167987711">
        <ele>167.2</ele>
        <time>2020-02-02T15:33:51Z</time>
      </trkpt>
      <trkpt lat="56.87452581982" lon="14.758063633056">
        <ele>167.4</ele>
        <time>2020-02-02T15:33:57Z</time>
      </trkpt>
      <trkpt lat="56.874622379308" lon="14.757991883992">
        <ele>166</ele>
        <time>2020-02-02T15:34:00Z</time>
      </trkpt>
      <trkpt lat="56.874671245785" lon="14.757947543741">
        <ele>164.8</ele>
        <time>2020-02-02T15:34:02Z</time>
      </trkpt>
      <trkpt lat="56.874844751115" lon="14.757803291242">
        <ele>164.4</ele>
        <time>2020-02-02T15:34:08Z</time>
      </trkpt>
      <trkpt lat="56.875031080752" lon="14.757714946016">
        <ele>164.2</ele>
        <time>2020-02-02T15:34:14Z</time>
      </trkpt>
      <trkpt lat="56.875228642135" lon="14.757630121188">
        <ele>164</ele>
        <time>2020-02-02T15:34:21Z</time>
      </trkpt>
      <trkpt lat="56.875422264025" lon="14.757540518677">
        <ele>163.8</ele>
        <time>2020-02-02T15:34:28Z</time>
      </trkpt>
      <trkpt lat="56.875587974188" lon="14.757403977526">
        <ele>162.8</ele>
        <time>2020-02-02T15:34:34Z</time>
      </trkpt>
      <trkpt lat="56.875773549454" lon="14.757322756915">
        <ele>163.4</ele>
        <time>2020-02-02T15:34:40Z</time>
      </trkpt>
      <trkpt lat="56.875963064213" lon="14.757373551229">
        <ele>163.4</ele>
        <time>2020-02-02T15:34:46Z</time>
      </trkpt>
      <trkpt lat="56.876077980062" lon="14.757442869542">
        <ele>164</ele>
        <time>2020-02-02T15:34:51Z</time>
      </trkpt>
      <trkpt lat="56.87626087312" lon="14.757492238933">
        <ele>164.6</ele>
        <time>2020-02-02T15:34:57Z</time>
      </trkpt>
      <trkpt lat="56.87634217755" lon="14.757520821212">
        <ele>164.8</ele>
        <time>2020-02-02T15:35:00Z</time>
      </trkpt>
      <trkpt lat="56.876549461937" lon="14.757583769281">
        <ele>165.8</ele>
        <time>2020-02-02T15:35:07Z</time>
      </trkpt>
      <trkpt lat="56.876646105244" lon="14.757583769281">
        <ele>166</ele>
        <time>2020-02-02T15:35:10Z</time>
      </trkpt>
      <trkpt lat="56.876827321922" lon="14.75745477184">
        <ele>165.2</ele>
        <time>2020-02-02T15:35:16Z</time>
      </trkpt>
      <trkpt lat="56.876997977406" lon="14.757300209604">
        <ele>165.2</ele>
        <time>2020-02-02T15:35:23Z</time>
      </trkpt>
      <trkpt lat="56.877180451369" lon="14.757339436896">
        <ele>166.4</ele>
        <time>2020-02-02T15:35:30Z</time>
      </trkpt>
      <trkpt lat="56.877261085247" lon="14.757354105221">
        <ele>167</ele>
        <time>2020-02-02T15:35:33Z</time>
      </trkpt>
      <trkpt lat="56.877345574799" lon="14.757366845709">
        <ele>168.2</ele>
        <time>2020-02-02T15:35:37Z</time>
      </trkpt>
      <trkpt lat="56.877418078234" lon="14.757386459355">
        <ele>169.4</ele>
        <time>2020-02-02T15:35:40Z</time>
      </trkpt>
      <trkpt lat="56.87747205767" lon="14.757393416332">
        <ele>170.4</ele>
        <time>2020-02-02T15:35:42Z</time>
      </trkpt>
      <trkpt lat="56.877558726516" lon="14.757397355825">
        <ele>171.6</ele>
        <time>2020-02-02T15:35:45Z</time>
      </trkpt>
      <trkpt lat="56.877698285151" lon="14.757327869874">
        <ele>170.2</ele>
        <time>2020-02-02T15:35:50Z</time>
      </trkpt>
      <trkpt lat="56.877747319266" lon="14.757271543506">
        <ele>168.6</ele>
        <time>2020-02-02T15:35:52Z</time>
      </trkpt>
      <trkpt lat="56.877775817726" lon="14.75718403647">
        <ele>167.6</ele>
        <time>2020-02-02T15:35:54Z</time>
      </trkpt>
      <trkpt lat="56.87780314272" lon="14.757104073144">
        <ele>166.6</ele>
        <time>2020-02-02T15:35:56Z</time>
      </trkpt>
      <trkpt lat="56.877899031656" lon="14.756969795106">
        <ele>165.4</ele>
        <time>2020-02-02T15:36:00Z</time>
      </trkpt>
      <trkpt lat="56.878091312442" lon="14.756963089586">
        <ele>165</ele>
        <time>2020-02-02T15:36:07Z</time>
      </trkpt>
      <trkpt lat="56.87816272623" lon="14.757047327681">
        <ele>166.8</ele>
        <time>2020-02-02T15:36:11Z</time>
      </trkpt>
      <trkpt lat="56.878193403984" lon="14.757097786719">
        <ele>167.4</ele>
        <time>2020-02-02T15:36:13Z</time>
      </trkpt>
      <trkpt lat="56.878248975981" lon="14.757178504416">
        <ele>168</ele>
        <time>2020-02-02T15:36:16Z</time>
      </trkpt>
      <trkpt lat="56.878338494673" lon="14.757266346728">
        <ele>169</ele>
        <time>2020-02-02T15:36:20Z</time>
      </trkpt>
      <trkpt lat="56.878542677757" lon="14.757381933129">
        <ele>169.8</ele>
        <time>2020-02-02T15:36:27Z</time>
      </trkpt>
      <trkpt lat="56.878722553331" lon="14.757512774588">
        <ele>168</ele>
        <time>2020-02-02T15:36:33Z</time>
      </trkpt>
      <trkpt lat="56.87875616475" lon="14.757581925263">
        <ele>166.8</ele>
        <time>2020-02-02T15:36:35Z</time>
      </trkpt>
      <trkpt lat="56.878871667332" lon="14.757878728342">
        <ele>167</ele>
        <time>2020-02-02T15:36:43Z</time>
      </trkpt>
      <trkpt lat="56.878903099457" lon="14.757999427702">
        <ele>168</ele>
        <time>2020-02-02T15:36:46Z</time>
      </trkpt>
      <trkpt lat="56.878929921537" lon="14.758109649687">
        <ele>169.2</ele>
        <time>2020-02-02T15:36:49Z</time>
      </trkpt>
      <trkpt lat="56.878937297609" lon="14.75818902628">
        <ele>169.4</ele>
        <time>2020-02-02T15:36:51Z</time>
      </trkpt>
      <trkpt lat="56.878925395311" lon="14.758307127251">
        <ele>170.2</ele>
        <time>2020-02-02T15:36:54Z</time>
      </trkpt>
      <trkpt lat="56.878839229379" lon="14.758569648359">
        <ele>170.2</ele>
        <time>2020-02-02T15:37:02Z</time>
      </trkpt>
      <trkpt lat="56.878701598581" lon="14.758845245231">
        <ele>170.8</ele>
        <time>2020-02-02T15:37:10Z</time>
      </trkpt>
      <trkpt lat="56.878591292777" lon="14.759110951461">
        <ele>171</ele>
        <time>2020-02-02T15:37:16Z</time>
      </trkpt>
      <trkpt lat="56.878456428006" lon="14.759397528622">
        <ele>171</ele>
        <time>2020-02-02T15:37:23Z</time>
      </trkpt>
      <trkpt lat="56.878430527935" lon="14.759432984059">
        <ele>171.2</ele>
        <time>2020-02-02T15:37:24Z</time>
      </trkpt>
      <trkpt lat="56.878271942387" lon="14.759679998652">
        <ele>171</ele>
        <time>2020-02-02T15:37:31Z</time>
      </trkpt>
      <trkpt lat="56.878186530826" lon="14.759929863091">
        <ele>170</ele>
        <time>2020-02-02T15:37:37Z</time>
      </trkpt>
      <trkpt lat="56.878126013508" lon="14.760192719475">
        <ele>169</ele>
        <time>2020-02-02T15:37:42Z</time>
      </trkpt>
      <trkpt lat="56.878034566979" lon="14.760503855603">
        <ele>169.8</ele>
        <time>2020-02-02T15:37:49Z</time>
      </trkpt>
      <trkpt lat="56.878022161767" lon="14.760550375148">
        <ele>170.2</ele>
        <time>2020-02-02T15:37:50Z</time>
      </trkpt>
      <trkpt lat="56.877908503203" lon="14.760827313124">
        <ele>169.2</ele>
        <time>2020-02-02T15:37:58Z</time>
      </trkpt>
      <trkpt lat="56.877787720024" lon="14.761021605566">
        <ele>168.2</ele>
        <time>2020-02-02T15:38:04Z</time>
      </trkpt>
      <trkpt lat="56.877650005407" lon="14.761297118619">
        <ele>168</ele>
        <time>2020-02-02T15:38:11Z</time>
      </trkpt>
      <trkpt lat="56.877499382664" lon="14.761569865645">
        <ele>168</ele>
        <time>2020-02-02T15:38:16Z</time>
      </trkpt>
      <trkpt lat="56.87735471107" lon="14.761803972112">
        <ele>168.2</ele>
        <time>2020-02-02T15:38:22Z</time>
      </trkpt>
      <trkpt lat="56.877209117467" lon="14.76205056761">
        <ele>168.4</ele>
        <time>2020-02-02T15:38:30Z</time>
      </trkpt>
      <trkpt lat="56.877200232653" lon="14.762087783246">
        <ele>168.4</ele>
        <time>2020-02-02T15:38:31Z</time>
      </trkpt>
      <trkpt lat="56.877128483589" lon="14.762419706486">
        <ele>168.8</ele>
        <time>2020-02-02T15:38:39Z</time>
      </trkpt>
      <trkpt lat="56.877117084205" lon="14.762468405325">
        <ele>168.8</ele>
        <time>2020-02-02T15:38:40Z</time>
      </trkpt>
      <trkpt lat="56.876978866674" lon="14.76271860504">
        <ele>168.6</ele>
        <time>2020-02-02T15:38:46Z</time>
      </trkpt>
      <trkpt lat="56.876964868901" lon="14.76275297083">
        <ele>168.6</ele>
        <time>2020-02-02T15:38:47Z</time>
      </trkpt>
      <trkpt lat="56.876863783187" lon="14.763038039249">
        <ele>169</ele>
        <time>2020-02-02T15:38:55Z</time>
      </trkpt>
      <trkpt lat="56.876777868712" lon="14.76328270691">
        <ele>169</ele>
        <time>2020-02-02T15:39:01Z</time>
      </trkpt>
      <trkpt lat="56.876761188731" lon="14.763347666635">
        <ele>169.2</ele>
        <time>2020-02-02T15:39:02Z</time>
      </trkpt>
      <trkpt lat="56.876738976696" lon="14.76348890165">
        <ele>169.4</ele>
        <time>2020-02-02T15:39:04Z</time>
      </trkpt>
      <trkpt lat="56.876717099937" lon="14.763591412287">
        <ele>169.8</ele>
        <time>2020-02-02T15:39:06Z</time>
      </trkpt>
      <trkpt lat="56.876629341444" lon="14.763756535717">
        <ele>170.2</ele>
        <time>2020-02-02T15:39:10Z</time>
      </trkpt>
      <trkpt lat="56.876490369542" lon="14.763994833134">
        <ele>170</ele>
        <time>2020-02-02T15:39:15Z</time>
      </trkpt>
      <trkpt lat="56.876370759829" lon="14.764302365045">
        <ele>170</ele>
        <time>2020-02-02T15:39:21Z</time>
      </trkpt>
      <trkpt lat="56.876347122871" lon="14.764349555142">
        <ele>169.8</ele>
        <time>2020-02-02T15:39:22Z</time>
      </trkpt>
      <trkpt lat="56.876226339692" lon="14.764598749029">
        <ele>169.4</ele>
        <time>2020-02-02T15:39:27Z</time>
      </trkpt>
      <trkpt lat="56.876058534054" lon="14.764757418396">
        <ele>169.2</ele>
        <time>2020-02-02T15:39:34Z</time>
      </trkpt>
      <trkpt lat="56.876028023938" lon="14.764765884115">
        <ele>169.2</ele>
        <time>2020-02-02T15:39:35Z</time>
      </trkpt>
      <trkpt lat="56.875829456727" lon="14.76476378864">
        <ele>168.8</ele>
        <time>2020-02-02T15:39:42Z</time>
      </trkpt>
      <trkpt lat="56.875685288047" lon="14.764696398164">
        <ele>168</ele>
        <time>2020-02-02T15:39:47Z</time>
      </trkpt>
      <trkpt lat="56.875486804655" lon="14.764609980775">
        <ele>167</ele>
        <time>2020-02-02T15:39:53Z</time>
      </trkpt>
      <trkpt lat="56.875457300367" lon="14.764610064594">
        <ele>166.8</ele>
        <time>2020-02-02T15:39:54Z</time>
      </trkpt>
      <trkpt lat="56.87524666322" lon="14.764561617212">
        <ele>166.8</ele>
        <time>2020-02-02T15:40:00Z</time>
      </trkpt>
      <trkpt lat="56.875059160117" lon="14.764516271133">
        <ele>166.8</ele>
        <time>2020-02-02T15:40:05Z</time>
      </trkpt>
      <trkpt lat="56.874853635929" lon="14.764520294445">
        <ele>166.4</ele>
        <time>2020-02-02T15:40:11Z</time>
      </trkpt>
      <trkpt lat="56.874829160781" lon="14.764534040761">
        <ele>166.2</ele>
        <time>2020-02-02T15:40:12Z</time>
      </trkpt>
      <trkpt lat="56.874719776986" lon="14.764618949408">
        <ele>165.8</ele>
        <time>2020-02-02T15:40:16Z</time>
      </trkpt>
      <trkpt lat="56.874668144482" lon="14.764669995179">
        <ele>165.6</ele>
        <time>2020-02-02T15:40:19Z</time>
      </trkpt>
      <trkpt lat="56.874478629723" lon="14.76480569814">
        <ele>165.8</ele>
        <time>2020-02-02T15:40:26Z</time>
      </trkpt>
      <trkpt lat="56.874294060285" lon="14.764797567697">
        <ele>166</ele>
        <time>2020-02-02T15:40:31Z</time>
      </trkpt>
      <trkpt lat="56.874106892458" lon="14.764797902973">
        <ele>166.2</ele>
        <time>2020-02-02T15:40:36Z</time>
      </trkpt>
      <trkpt lat="56.873929363816" lon="14.764882979258">
        <ele>166.4</ele>
        <time>2020-02-02T15:40:41Z</time>
      </trkpt>
      <trkpt lat="56.873818722736" lon="14.765154301361">
        <ele>166.6</ele>
        <time>2020-02-02T15:40:48Z</time>
      </trkpt>
      <trkpt lat="56.873776980874" lon="14.765506927894">
        <ele>166.2</ele>
        <time>2020-02-02T15:40:55Z</time>
      </trkpt>
      <trkpt lat="56.873754768839" lon="14.765673140971">
        <ele>166.4</ele>
        <time>2020-02-02T15:40:58Z</time>
      </trkpt>
      <trkpt lat="56.873727695302" lon="14.765924597971">
        <ele>167</ele>
        <time>2020-02-02T15:41:03Z</time>
      </trkpt>
      <trkpt lat="56.873704728896" lon="14.766246798207">
        <ele>168</ele>
        <time>2020-02-02T15:41:10Z</time>
      </trkpt>
      <trkpt lat="56.873707830199" lon="14.766311590294">
        <ele>168</ele>
        <time>2020-02-02T15:41:11Z</time>
      </trkpt>
      <trkpt lat="56.873706824371" lon="14.766551815548">
        <ele>168.6</ele>
        <time>2020-02-02T15:41:15Z</time>
      </trkpt>
      <trkpt lat="56.873722917619" lon="14.766902514244">
        <ele>168.6</ele>
        <time>2020-02-02T15:41:20Z</time>
      </trkpt>
      <trkpt lat="56.873765749128" lon="14.767228151059">
        <ele>167.8</ele>
        <time>2020-02-02T15:41:25Z</time>
      </trkpt>
      <trkpt lat="56.873783099661" lon="14.767585303818">
        <ele>167.6</ele>
        <time>2020-02-02T15:41:32Z</time>
      </trkpt>
      <trkpt lat="56.873754852658" lon="14.767861571242">
        <ele>167</ele>
        <time>2020-02-02T15:41:37Z</time>
      </trkpt>
      <trkpt lat="56.873719648678" lon="14.7682540118">
        <ele>166.2</ele>
        <time>2020-02-02T15:41:43Z</time>
      </trkpt>
      <trkpt lat="56.873713865167" lon="14.768316121679">
        <ele>165.8</ele>
        <time>2020-02-02T15:41:44Z</time>
      </trkpt>
      <trkpt lat="56.873672961495" lon="14.768647458186">
        <ele>165</ele>
        <time>2020-02-02T15:41:49Z</time>
      </trkpt>
      <trkpt lat="56.873573300704" lon="14.768937052831">
        <ele>165</ele>
        <time>2020-02-02T15:41:55Z</time>
      </trkpt>
      <trkpt lat="56.873407255265" lon="14.769141403553">
        <ele>166.6</ele>
        <time>2020-02-02T15:42:03Z</time>
      </trkpt>
      <trkpt lat="56.873326872844" lon="14.769364697369">
        <ele>166.8</ele>
        <time>2020-02-02T15:42:08Z</time>
      </trkpt>
      <trkpt lat="56.873307678293" lon="14.769429740913">
        <ele>166.8</ele>
        <time>2020-02-02T15:42:10Z</time>
      </trkpt>
      <trkpt lat="56.873157977559" lon="14.769700895378">
        <ele>166.8</ele>
        <time>2020-02-02T15:42:17Z</time>
      </trkpt>
      <trkpt lat="56.873060998976" lon="14.769904659367">
        <ele>166.6</ele>
        <time>2020-02-02T15:42:22Z</time>
      </trkpt>
      <trkpt lat="56.872952621009" lon="14.770198444962">
        <ele>166.6</ele>
        <time>2020-02-02T15:42:29Z</time>
      </trkpt>
      <trkpt lat="56.872817923876" lon="14.770422828425">
        <ele>166.8</ele>
        <time>2020-02-02T15:42:36Z</time>
      </trkpt>
      <trkpt lat="56.87265917069" lon="14.770678979289">
        <ele>167</ele>
        <time>2020-02-02T15:42:42Z</time>
      </trkpt>
      <trkpt lat="56.872506536291" lon="14.770861369433">
        <ele>167.8</ele>
        <time>2020-02-02T15:42:47Z</time>
      </trkpt>
      <trkpt lat="56.872326660717" lon="14.770962287509">
        <ele>168.6</ele>
        <time>2020-02-02T15:42:54Z</time>
      </trkpt>
      <trkpt lat="56.872262874458" lon="14.770983745173">
        <ele>169</ele>
        <time>2020-02-02T15:42:57Z</time>
      </trkpt>
      <trkpt lat="56.872159022717" lon="14.771091117312">
        <ele>170.2</ele>
        <time>2020-02-02T15:43:01Z</time>
      </trkpt>
      <trkpt lat="56.872064391066" lon="14.771239560761">
        <ele>171.2</ele>
        <time>2020-02-02T15:43:05Z</time>
      </trkpt>
      <trkpt lat="56.872027510706" lon="14.771285242116">
        <ele>172.4</ele>
        <time>2020-02-02T15:43:07Z</time>
      </trkpt>
      <trkpt lat="56.871955594004" lon="14.771340981751">
        <ele>173.4</ele>
        <time>2020-02-02T15:43:10Z</time>
      </trkpt>
      <trkpt lat="56.871799355388" lon="14.771487245906">
        <ele>174.6</ele>
        <time>2020-02-02T15:43:16Z</time>
      </trkpt>
      <trkpt lat="56.871642697677" lon="14.771652788431">
        <ele>174.8</ele>
        <time>2020-02-02T15:43:22Z</time>
      </trkpt>
      <trkpt lat="56.871491236744" lon="14.771923439982">
        <ele>174.4</ele>
        <time>2020-02-02T15:43:30Z</time>
      </trkpt>
      <trkpt lat="56.871355701421" lon="14.772197444293">
        <ele>175.2</ele>
        <time>2020-02-02T15:43:36Z</time>
      </trkpt>
      <trkpt lat="56.871215053139" lon="14.772435071158">
        <ele>175.4</ele>
        <time>2020-02-02T15:43:42Z</time>
      </trkpt>
      <trkpt lat="56.87118647086" lon="14.772472538251">
        <ele>175.6</ele>
        <time>2020-02-02T15:43:43Z</time>
      </trkpt>
      <trkpt lat="56.871029561692" lon="14.772671859833">
        <ele>175.2</ele>
        <time>2020-02-02T15:43:48Z</time>
      </trkpt>
      <trkpt lat="56.870918082422" lon="14.772812508115">
        <ele>174.6</ele>
        <time>2020-02-02T15:43:52Z</time>
      </trkpt>
      <trkpt lat="56.8708478421" lon="14.77294200847">
        <ele>174.6</ele>
        <time>2020-02-02T15:43:55Z</time>
      </trkpt>
      <trkpt lat="56.870870137954" lon="14.773260185394">
        <ele>174.6</ele>
        <time>2020-02-02T15:44:00Z</time>
      </trkpt>
      <trkpt lat="56.870943647217" lon="14.773585906028">
        <ele>174.2</ele>
        <time>2020-02-02T15:44:06Z</time>
      </trkpt>
      <trkpt lat="56.871031573348" lon="14.773907519531">
        <ele>174</ele>
        <time>2020-02-02T15:44:12Z</time>
      </trkpt>
      <trkpt lat="56.871105082611" lon="14.774171297924">
        <ele>173.4</ele>
        <time>2020-02-02T15:44:17Z</time>
      </trkpt>
      <trkpt lat="56.871195523312" lon="14.774471621401">
        <ele>173.6</ele>
        <time>2020-02-02T15:44:23Z</time>
      </trkpt>
      <trkpt lat="56.871284119995" lon="14.774774710905">
        <ele>173.2</ele>
        <time>2020-02-02T15:44:29Z</time>
      </trkpt>
      <trkpt lat="56.871355449964" lon="14.77509531858">
        <ele>173.8</ele>
        <time>2020-02-02T15:44:35Z</time>
      </trkpt>
      <trkpt lat="56.871360982018" lon="14.77541969811">
        <ele>174</ele>
        <time>2020-02-02T15:44:41Z</time>
      </trkpt>
      <trkpt lat="56.871163085359" lon="14.775400922654">
        <ele>174.2</ele>
        <time>2020-02-02T15:44:48Z</time>
      </trkpt>
      <trkpt lat="56.871141627695" lon="14.775391367288">
        <ele>174.2</ele>
        <time>2020-02-02T15:44:49Z</time>
      </trkpt>
      <trkpt lat="56.87094255757" lon="14.775314421446">
        <ele>174.2</ele>
        <time>2020-02-02T15:44:56Z</time>
      </trkpt>
      <trkpt lat="56.870738793581" lon="14.775240912183">
        <ele>174</ele>
        <time>2020-02-02T15:45:03Z</time>
      </trkpt>
      <trkpt lat="56.87054777008" lon="14.775199002683">
        <ele>172.8</ele>
        <time>2020-02-02T15:45:10Z</time>
      </trkpt>
      <trkpt lat="56.870358422959" lon="14.775165977997">
        <ele>172.6</ele>
        <time>2020-02-02T15:45:16Z</time>
      </trkpt>
      <trkpt lat="56.870293044139" lon="14.775159272477">
        <ele>172.4</ele>
        <time>2020-02-02T15:45:18Z</time>
      </trkpt>
      <trkpt lat="56.870104535208" lon="14.775156003536">
        <ele>171.8</ele>
        <time>2020-02-02T15:45:24Z</time>
      </trkpt>
      <trkpt lat="56.870048879392" lon="14.775140916116">
        <ele>171.2</ele>
        <time>2020-02-02T15:45:26Z</time>
      </trkpt>
      <trkpt lat="56.869856933882" lon="14.775122056841">
        <ele>171</ele>
        <time>2020-02-02T15:45:32Z</time>
      </trkpt>
      <trkpt lat="56.869677477403" lon="14.775085008843">
        <ele>170.6</ele>
        <time>2020-02-02T15:45:38Z</time>
      </trkpt>
      <trkpt lat="56.869463655134" lon="14.775081572264">
        <ele>170.8</ele>
        <time>2020-02-02T15:45:45Z</time>
      </trkpt>
      <trkpt lat="56.86926953033" lon="14.775105125403">
        <ele>170.4</ele>
        <time>2020-02-02T15:45:50Z</time>
      </trkpt>
      <trkpt lat="56.869238852576" lon="14.775106131231">
        <ele>170.2</ele>
        <time>2020-02-02T15:45:51Z</time>
      </trkpt>
      <trkpt lat="56.869043302849" lon="14.775074950563">
        <ele>170.2</ele>
        <time>2020-02-02T15:45:57Z</time>
      </trkpt>
      <trkpt lat="56.868854291004" lon="14.775047793207">
        <ele>170.6</ele>
        <time>2020-02-02T15:46:03Z</time>
      </trkpt>
      <trkpt lat="56.868651868119" lon="14.775042931705">
        <ele>170.6</ele>
        <time>2020-02-02T15:46:09Z</time>
      </trkpt>
      <trkpt lat="56.868469226518" lon="14.774999513463">
        <ele>170.4</ele>
        <time>2020-02-02T15:46:16Z</time>
      </trkpt>
      <trkpt lat="56.868287506926" lon="14.774972607564">
        <ele>169.8</ele>
        <time>2020-02-02T15:46:21Z</time>
      </trkpt>
      <trkpt lat="56.868107715171" lon="14.774945031113">
        <ele>169.6</ele>
        <time>2020-02-02T15:46:27Z</time>
      </trkpt>
      <trkpt lat="56.867920631163" lon="14.774948467692">
        <ele>169</ele>
        <time>2020-02-02T15:46:33Z</time>
      </trkpt>
      <trkpt lat="56.867744778901" lon="14.77494025343">
        <ele>167.8</ele>
        <time>2020-02-02T15:46:38Z</time>
      </trkpt>
      <trkpt lat="56.867564484232" lon="14.774920891241">
        <ele>167.2</ele>
        <time>2020-02-02T15:46:44Z</time>
      </trkpt>
      <trkpt lat="56.867369940333" lon="14.774888453288">
        <ele>167.6</ele>
        <time>2020-02-02T15:46:50Z</time>
      </trkpt>
      <trkpt lat="56.867227448033" lon="14.774973948668">
        <ele>167.8</ele>
        <time>2020-02-02T15:46:55Z</time>
      </trkpt>
      <trkpt lat="56.867225268739" lon="14.775350212159">
        <ele>167.6</ele>
        <time>2020-02-02T15:47:01Z</time>
      </trkpt>
      <trkpt lat="56.867242367815" lon="14.775724128718">
        <ele>167.4</ele>
        <time>2020-02-02T15:47:07Z</time>
      </trkpt>
      <trkpt lat="56.867210851871" lon="14.776093519051">
        <ele>167.2</ele>
        <time>2020-02-02T15:47:13Z</time>
      </trkpt>
      <trkpt lat="56.867162655946" lon="14.776445391213">
        <ele>166.8</ele>
        <time>2020-02-02T15:47:19Z</time>
      </trkpt>
      <trkpt lat="56.867073221073" lon="14.776787456552">
        <ele>167</ele>
        <time>2020-02-02T15:47:26Z</time>
      </trkpt>
      <trkpt lat="56.867008848081" lon="14.777005302133">
        <ele>167.4</ele>
        <time>2020-02-02T15:47:32Z</time>
      </trkpt>
      <trkpt lat="56.866958137586" lon="14.777376620303">
        <ele>167.8</ele>
        <time>2020-02-02T15:47:39Z</time>
      </trkpt>
      <trkpt lat="56.866883957771" lon="14.777705777516">
        <ele>168.6</ele>
        <time>2020-02-02T15:47:46Z</time>
      </trkpt>
      <trkpt lat="56.86687733607" lon="14.778037030204">
        <ele>168.4</ele>
        <time>2020-02-02T15:47:52Z</time>
      </trkpt>
      <trkpt lat="56.866843054099" lon="14.778413796609">
        <ele>168.2</ele>
        <time>2020-02-02T15:47:58Z</time>
      </trkpt>
      <trkpt lat="56.866873061301" lon="14.778762483649">
        <ele>168</ele>
        <time>2020-02-02T15:48:04Z</time>
      </trkpt>
      <trkpt lat="56.866881191744" lon="14.779139333873">
        <ele>168</ele>
        <time>2020-02-02T15:48:10Z</time>
      </trkpt>
      <trkpt lat="56.866924107072" lon="14.779479219918">
        <ele>167.6</ele>
        <time>2020-02-02T15:48:16Z</time>
      </trkpt>
      <trkpt lat="56.866985630218" lon="14.779830840623">
        <ele>167.4</ele>
        <time>2020-02-02T15:48:23Z</time>
      </trkpt>
      <trkpt lat="56.867001052914" lon="14.780214228729">
        <ele>167.6</ele>
        <time>2020-02-02T15:48:29Z</time>
      </trkpt>
      <trkpt lat="56.867004405674" lon="14.780592420057">
        <ele>167.6</ele>
        <time>2020-02-02T15:48:35Z</time>
      </trkpt>
      <trkpt lat="56.867000969095" lon="14.780935239767">
        <ele>167</ele>
        <time>2020-02-02T15:48:41Z</time>
      </trkpt>
      <trkpt lat="56.866975320481" lon="14.78120320911">
        <ele>166.8</ele>
        <time>2020-02-02T15:48:46Z</time>
      </trkpt>
      <trkpt lat="56.866938272483" lon="14.781525409346">
        <ele>166.8</ele>
        <time>2020-02-02T15:48:52Z</time>
      </trkpt>
      <trkpt lat="56.866904828702" lon="14.781861607355">
        <ele>166.6</ele>
        <time>2020-02-02T15:48:59Z</time>
      </trkpt>
      <trkpt lat="56.866906002168" lon="14.782129241422">
        <ele>166.2</ele>
        <time>2020-02-02T15:49:05Z</time>
      </trkpt>
      <trkpt lat="56.866885382694" lon="14.782345410623">
        <ele>165.6</ele>
        <time>2020-02-02T15:49:09Z</time>
      </trkpt>
      <trkpt lat="56.866856884234" lon="14.782679345519">
        <ele>165.4</ele>
        <time>2020-02-02T15:49:14Z</time>
      </trkpt>
      <trkpt lat="56.86689912901" lon="14.783005149972">
        <ele>164.8</ele>
        <time>2020-02-02T15:49:19Z</time>
      </trkpt>
      <trkpt lat="56.866900386295" lon="14.783072540448">
        <ele>164.6</ele>
        <time>2020-02-02T15:49:20Z</time>
      </trkpt>
      <trkpt lat="56.866983031829" lon="14.783414186692">
        <ele>163.8</ele>
        <time>2020-02-02T15:49:27Z</time>
      </trkpt>
      <trkpt lat="56.86701312285" lon="14.783527761437">
        <ele>163.4</ele>
        <time>2020-02-02T15:49:29Z</time>
      </trkpt>
      <trkpt lat="56.867053439789" lon="14.783720461318">
        <ele>163.2</ele>
        <time>2020-02-02T15:49:33Z</time>
      </trkpt>
      <trkpt lat="56.867092499443" lon="14.783978540019">
        <ele>163</ele>
        <time>2020-02-02T15:49:38Z</time>
      </trkpt>
      <trkpt lat="56.867184867981" lon="14.784265452456">
        <ele>162.8</ele>
        <time>2020-02-02T15:49:43Z</time>
      </trkpt>
      <trkpt lat="56.867200374496" lon="14.78445119536">
        <ele>162.4</ele>
        <time>2020-02-02T15:49:46Z</time>
      </trkpt>
      <trkpt lat="56.867182101954" lon="14.784491931394">
        <ele>162.4</ele>
        <time>2020-02-02T15:49:47Z</time>
      </trkpt>
      <trkpt lat="56.866995939955" lon="14.784532332152">
        <ele>163</ele>
        <time>2020-02-02T15:49:53Z</time>
      </trkpt>
      <trkpt lat="56.86679435526" lon="14.784505510072">
        <ele>162.8</ele>
        <time>2020-02-02T15:49:59Z</time>
      </trkpt>
      <trkpt lat="56.866607857985" lon="14.784502408769">
        <ele>163</ele>
        <time>2020-02-02T15:50:06Z</time>
      </trkpt>
      <trkpt lat="56.866425048746" lon="14.784597208058">
        <ele>162.8</ele>
        <time>2020-02-02T15:50:14Z</time>
      </trkpt>
      <trkpt lat="56.866334608045" lon="14.784922425778">
        <ele>162.6</ele>
        <time>2020-02-02T15:50:21Z</time>
      </trkpt>
      <trkpt lat="56.866336535882" lon="14.785298689269">
        <ele>162.6</ele>
        <time>2020-02-02T15:50:26Z</time>
      </trkpt>
      <trkpt lat="56.866371739862" lon="14.785637988581">
        <ele>162</ele>
        <time>2020-02-02T15:50:31Z</time>
      </trkpt>
      <trkpt lat="56.866394622449" lon="14.785980305377">
        <ele>162</ele>
        <time>2020-02-02T15:50:37Z</time>
      </trkpt>
      <trkpt lat="56.866358915555" lon="14.78633628467">
        <ele>162</ele>
        <time>2020-02-02T15:50:43Z</time>
      </trkpt>
      <trkpt lat="56.866361597763" lon="14.786672650317">
        <ele>162.2</ele>
        <time>2020-02-02T15:50:49Z</time>
      </trkpt>
      <trkpt lat="56.866366962179" lon="14.786793349677">
        <ele>162</ele>
        <time>2020-02-02T15:50:52Z</time>
      </trkpt>
      <trkpt lat="56.866387916929" lon="14.787135331197">
        <ele>162.6</ele>
        <time>2020-02-02T15:51:03Z</time>
      </trkpt>
      <trkpt lat="56.866381630504" lon="14.78735720009">
        <ele>163.2</ele>
        <time>2020-02-02T15:51:07Z</time>
      </trkpt>
      <trkpt lat="56.866374086794" lon="14.787439845624">
        <ele>163.4</ele>
        <time>2020-02-02T15:51:08Z</time>
      </trkpt>
      <trkpt lat="56.866356987718" lon="14.787747880449">
        <ele>164.6</ele>
        <time>2020-02-02T15:51:14Z</time>
      </trkpt>
      <trkpt lat="56.866446003496" lon="14.78791292006">
        <ele>165.2</ele>
        <time>2020-02-02T15:51:17Z</time>
      </trkpt>
      <trkpt lat="56.866608696175" lon="14.788009395729">
        <ele>165.2</ele>
        <time>2020-02-02T15:51:23Z</time>
      </trkpt>
      <trkpt lat="56.866738280349" lon="14.788237215771">
        <ele>164.8</ele>
        <time>2020-02-02T15:51:30Z</time>
      </trkpt>
      <trkpt lat="56.866797205106" lon="14.788390520722">
        <ele>165.2</ele>
        <time>2020-02-02T15:51:35Z</time>
      </trkpt>
      <trkpt lat="56.866855962225" lon="14.788606689923">
        <ele>165.6</ele>
        <time>2020-02-02T15:51:40Z</time>
      </trkpt>
      <trkpt lat="56.866868786532" lon="14.788639044057">
        <ele>165.8</ele>
        <time>2020-02-02T15:51:41Z</time>
      </trkpt>
      <trkpt lat="56.86701479923" lon="14.788878263483">
        <ele>166.4</ele>
        <time>2020-02-02T15:51:47Z</time>
      </trkpt>
      <trkpt lat="56.867024270777" lon="14.789067442966">
        <ele>166.6</ele>
        <time>2020-02-02T15:51:52Z</time>
      </trkpt>
      <trkpt lat="56.867019409275" lon="14.789387463908">
        <ele>166.8</ele>
        <time>2020-02-02T15:51:56Z</time>
      </trkpt>
      <trkpt lat="56.867201883238" lon="14.789644536781">
        <ele>167.4</ele>
        <time>2020-02-02T15:52:01Z</time>
      </trkpt>
      <trkpt lat="56.86724613967" lon="14.789685188996">
        <ele>167.6</ele>
        <time>2020-02-02T15:52:02Z</time>
      </trkpt>
      <trkpt lat="56.86740455758" lon="14.789818712663">
        <ele>169</ele>
        <time>2020-02-02T15:52:07Z</time>
      </trkpt>
      <trkpt lat="56.867520311619" lon="14.789827010744">
        <ele>170.2</ele>
        <time>2020-02-02T15:52:12Z</time>
      </trkpt>
      <trkpt lat="56.867625253007" lon="14.789791555307">
        <ele>171.2</ele>
        <time>2020-02-02T15:52:17Z</time>
      </trkpt>
      <trkpt lat="56.867821808562" lon="14.789734893663">
        <ele>172.2</ele>
        <time>2020-02-02T15:52:26Z</time>
      </trkpt>
      <trkpt lat="56.867847457176" lon="14.789725757392">
        <ele>172.4</ele>
        <time>2020-02-02T15:52:27Z</time>
      </trkpt>
      <trkpt lat="56.868037223392" lon="14.789643950048">
        <ele>172.8</ele>
        <time>2020-02-02T15:52:34Z</time>
      </trkpt>
      <trkpt lat="56.86813545926" lon="14.789591060259">
        <ele>173.4</ele>
        <time>2020-02-02T15:52:38Z</time>
      </trkpt>
      <trkpt lat="56.868213662387" lon="14.789599693616">
        <ele>173.4</ele>
        <time>2020-02-02T15:52:41Z</time>
      </trkpt>
      <trkpt lat="56.868284740899" lon="14.789731540903">
        <ele>173</ele>
        <time>2020-02-02T15:52:45Z</time>
      </trkpt>
      <trkpt lat="56.868432765253" lon="14.789932538865">
        <ele>173</ele>
        <time>2020-02-02T15:52:51Z</time>
      </trkpt>
      <trkpt lat="56.868527229266" lon="14.790010658173">
        <ele>172.4</ele>
        <time>2020-02-02T15:52:54Z</time>
      </trkpt>
      <trkpt lat="56.868632170654" lon="14.79011903614">
        <ele>171.2</ele>
        <time>2020-02-02T15:52:57Z</time>
      </trkpt>
      <trkpt lat="56.868720432061" lon="14.790268569236">
        <ele>169.8</ele>
        <time>2020-02-02T15:53:00Z</time>
      </trkpt>
      <trkpt lat="56.86877248366" lon="14.790373259167">
        <ele>168.8</ele>
        <time>2020-02-02T15:53:02Z</time>
      </trkpt>
      <trkpt lat="56.868845322371" lon="14.790558918252">
        <ele>167.6</ele>
        <time>2020-02-02T15:53:05Z</time>
      </trkpt>
      <trkpt lat="56.868899385626" lon="14.790670481341">
        <ele>166.6</ele>
        <time>2020-02-02T15:53:07Z</time>
      </trkpt>
      <trkpt lat="56.8689535327" lon="14.790775841824">
        <ele>165.6</ele>
        <time>2020-02-02T15:53:09Z</time>
      </trkpt>
      <trkpt lat="56.869041039736" lon="14.790901318867">
        <ele>164.2</ele>
        <time>2020-02-02T15:53:12Z</time>
      </trkpt>
      <trkpt lat="56.869211192306" lon="14.791102065372">
        <ele>163.2</ele>
        <time>2020-02-02T15:53:18Z</time>
      </trkpt>
      <trkpt lat="56.869383356532" lon="14.791269703372">
        <ele>163.4</ele>
        <time>2020-02-02T15:53:24Z</time>
      </trkpt>
      <trkpt lat="56.869501289865" lon="14.791433653336">
        <ele>164.4</ele>
        <time>2020-02-02T15:53:29Z</time>
      </trkpt>
      <trkpt lat="56.869632382781" lon="14.791658455894">
        <ele>165.4</ele>
        <time>2020-02-02T15:53:34Z</time>
      </trkpt>
      <trkpt lat="56.869723661672" lon="14.791819639831">
        <ele>165.6</ele>
        <time>2020-02-02T15:53:38Z</time>
      </trkpt>
      <trkpt lat="56.869768672475" lon="14.791949810738">
        <ele>166.6</ele>
        <time>2020-02-02T15:53:41Z</time>
      </trkpt>
      <trkpt lat="56.869888282188" lon="14.792253570794">
        <ele>167.4</ele>
        <time>2020-02-02T15:53:48Z</time>
      </trkpt>
      <trkpt lat="56.87006748721" lon="14.792422633717">
        <ele>167.2</ele>
        <time>2020-02-02T15:53:54Z</time>
      </trkpt>
      <trkpt lat="56.870260941462" lon="14.792562527628">
        <ele>167</ele>
        <time>2020-02-02T15:54:00Z</time>
      </trkpt>
      <trkpt lat="56.870452048782" lon="14.792658081288">
        <ele>167</ele>
        <time>2020-02-02T15:54:07Z</time>
      </trkpt>
      <trkpt lat="56.870573586332" lon="14.792720191167">
        <ele>167.8</ele>
        <time>2020-02-02T15:54:12Z</time>
      </trkpt>
      <trkpt lat="56.870767124403" lon="14.792811972972">
        <ele>168.6</ele>
        <time>2020-02-02T15:54:19Z</time>
      </trkpt>
      <trkpt lat="56.87095345404" lon="14.792937952929">
        <ele>168.6</ele>
        <time>2020-02-02T15:54:26Z</time>
      </trkpt>
      <trkpt lat="56.871008606942" lon="14.792965110285">
        <ele>168.8</ele>
        <time>2020-02-02T15:54:28Z</time>
      </trkpt>
      <trkpt lat="56.871198456977" lon="14.793056724452">
        <ele>169.4</ele>
        <time>2020-02-02T15:54:35Z</time>
      </trkpt>
      <trkpt lat="56.871351845747" lon="14.793131071905">
        <ele>169.8</ele>
        <time>2020-02-02T15:54:41Z</time>
      </trkpt>
      <trkpt lat="56.871547479293" lon="14.793084217084">
        <ele>170.4</ele>
        <time>2020-02-02T15:54:48Z</time>
      </trkpt>
      <trkpt lat="56.871745878866" lon="14.792974078918">
        <ele>170.4</ele>
        <time>2020-02-02T15:54:54Z</time>
      </trkpt>
      <trkpt lat="56.871929777752" lon="14.792856397042">
        <ele>170.6</ele>
        <time>2020-02-02T15:55:00Z</time>
      </trkpt>
      <trkpt lat="56.872110910611" lon="14.79279370043">
        <ele>170.4</ele>
        <time>2020-02-02T15:55:07Z</time>
      </trkpt>
      <trkpt lat="56.872294893316" lon="14.792833346817">
        <ele>170.6</ele>
        <time>2020-02-02T15:55:12Z</time>
      </trkpt>
      <trkpt lat="56.872481642048" lon="14.79289428323">
        <ele>170.4</ele>
        <time>2020-02-02T15:55:18Z</time>
      </trkpt>
      <trkpt lat="56.872680795992" lon="14.792849607703">
        <ele>170.4</ele>
        <time>2020-02-02T15:55:26Z</time>
      </trkpt>
      <trkpt lat="56.872860168652" lon="14.792736954967">
        <ele>169.8</ele>
        <time>2020-02-02T15:55:32Z</time>
      </trkpt>
      <trkpt lat="56.873056724207" lon="14.792730249447">
        <ele>170</ele>
        <time>2020-02-02T15:55:39Z</time>
      </trkpt>
      <trkpt lat="56.873187481847" lon="14.792726561411">
        <ele>169.8</ele>
        <time>2020-02-02T15:55:45Z</time>
      </trkpt>
      <trkpt lat="56.873248921174" lon="14.792521875413">
        <ele>169.6</ele>
        <time>2020-02-02T15:55:50Z</time>
      </trkpt>
    </trkseg>
  </trk>
</gpx>